<?xml version="1.0" encoding="UTF-8" standalone="no" ?>
<gpx xmlns="http://www.topografix.com/GPX/1/1" creator="MapSource 6.14.1" version="1.1" xmlns:xsi="http://www.w3.org/2001/XMLSchema-instance" xsi:schemaLocation="http://www.garmin.com/xmlschemas/GpxExtensions/v3 http://www.garmin.com/xmlschemas/GpxExtensionsv3.xsd http://www.topografix.com/GPX/1/1 http://www.topografix.com/GPX/1/1/gpx.xsd">

  <metadata>
    <link href="http://www.garmin.com">
      <text>Garmin International</text>
    </link>
    <time>2010-06-03T19:55:51Z</time>
    <bounds maxlat="50.3298800" maxlon="7.3057235" minlat="50.3158357" minlon="7.2739493"/>
  </metadata>

  <trk>
    <name>ACTIVE LOG</name>
    <extensions>
      <gpxx:TrackExtension xmlns:gpxx="http://www.garmin.com/xmlschemas/GpxExtensions/v3">
        <gpxx:DisplayColor>Blue</gpxx:DisplayColor>
      </gpxx:TrackExtension>
    </extensions>
    <trkseg>
      <trkpt lat="50.3231065" lon="7.2995812">
        <ele>177.0200195</ele>
        <time>2010-06-03T14:38:46Z</time>
      </trkpt>
      <trkpt lat="50.3230880" lon="7.2993502">
        <ele>177.5006104</ele>
        <time>2010-06-03T14:40:21Z</time>
      </trkpt>
      <trkpt lat="50.3230994" lon="7.2993022">
        <ele>177.5006104</ele>
        <time>2010-06-03T14:40:28Z</time>
      </trkpt>
      <trkpt lat="50.3230844" lon="7.2991848">
        <ele>177.9812012</ele>
        <time>2010-06-03T14:40:38Z</time>
      </trkpt>
      <trkpt lat="50.3229661" lon="7.2992337">
        <ele>178.9426270</ele>
        <time>2010-06-03T14:40:57Z</time>
      </trkpt>
      <trkpt lat="50.3227517" lon="7.2995054">
        <ele>180.3845215</ele>
        <time>2010-06-03T14:41:15Z</time>
      </trkpt>
      <trkpt lat="50.3227111" lon="7.2993232">
        <ele>180.3845215</ele>
        <time>2010-06-03T14:41:44Z</time>
      </trkpt>
      <trkpt lat="50.3223955" lon="7.2989301">
        <ele>183.7490234</ele>
        <time>2010-06-03T14:42:53Z</time>
      </trkpt>
      <trkpt lat="50.3223717" lon="7.2988768">
        <ele>183.7490234</ele>
        <time>2010-06-03T14:42:57Z</time>
      </trkpt>
      <trkpt lat="50.3223180" lon="7.2988133">
        <ele>183.7490234</ele>
        <time>2010-06-03T14:43:04Z</time>
      </trkpt>
      <trkpt lat="50.3221835" lon="7.2986481">
        <ele>184.7105713</ele>
        <time>2010-06-03T14:43:18Z</time>
      </trkpt>
      <trkpt lat="50.3221183" lon="7.2985057">
        <ele>184.7105713</ele>
        <time>2010-06-03T14:43:38Z</time>
      </trkpt>
      <trkpt lat="50.3220368" lon="7.2983455">
        <ele>186.1524658</ele>
        <time>2010-06-03T14:43:49Z</time>
      </trkpt>
      <trkpt lat="50.3219587" lon="7.2982345">
        <ele>186.6331787</ele>
        <time>2010-06-03T14:43:58Z</time>
      </trkpt>
      <trkpt lat="50.3218876" lon="7.2980704">
        <ele>187.5943604</ele>
        <time>2010-06-03T14:44:09Z</time>
      </trkpt>
      <trkpt lat="50.3218671" lon="7.2980145">
        <ele>187.5943604</ele>
        <time>2010-06-03T14:44:13Z</time>
      </trkpt>
      <trkpt lat="50.3217391" lon="7.2978733">
        <ele>188.0750732</ele>
        <time>2010-06-03T14:44:27Z</time>
      </trkpt>
      <trkpt lat="50.3217242" lon="7.2978518">
        <ele>188.5557861</ele>
        <time>2010-06-03T14:44:29Z</time>
      </trkpt>
      <trkpt lat="50.3216940" lon="7.2977723">
        <ele>189.0363770</ele>
        <time>2010-06-03T14:44:34Z</time>
      </trkpt>
      <trkpt lat="50.3215855" lon="7.2975576">
        <ele>189.9976807</ele>
        <time>2010-06-03T14:44:51Z</time>
      </trkpt>
      <trkpt lat="50.3214760" lon="7.2973753">
        <ele>190.9589844</ele>
        <time>2010-06-03T14:45:06Z</time>
      </trkpt>
      <trkpt lat="50.3214066" lon="7.2971568">
        <ele>191.4395752</ele>
        <time>2010-06-03T14:45:31Z</time>
      </trkpt>
      <trkpt lat="50.3214008" lon="7.2970958">
        <ele>191.9202881</ele>
        <time>2010-06-03T14:45:35Z</time>
      </trkpt>
      <trkpt lat="50.3214051" lon="7.2970584">
        <ele>191.4395752</ele>
        <time>2010-06-03T14:45:38Z</time>
      </trkpt>
      <trkpt lat="50.3214143" lon="7.2970085">
        <ele>189.9976807</ele>
        <time>2010-06-03T14:45:40Z</time>
      </trkpt>
      <trkpt lat="50.3214034" lon="7.2968221">
        <ele>188.5557861</ele>
        <time>2010-06-03T14:45:50Z</time>
      </trkpt>
      <trkpt lat="50.3214193" lon="7.2967347">
        <ele>187.5943604</ele>
        <time>2010-06-03T14:45:53Z</time>
      </trkpt>
      <trkpt lat="50.3214278" lon="7.2966454">
        <ele>186.6331787</ele>
        <time>2010-06-03T14:45:57Z</time>
      </trkpt>
      <trkpt lat="50.3214304" lon="7.2965598">
        <ele>186.6331787</ele>
        <time>2010-06-03T14:46:00Z</time>
      </trkpt>
      <trkpt lat="50.3214526" lon="7.2964785">
        <ele>185.1911621</ele>
        <time>2010-06-03T14:46:04Z</time>
      </trkpt>
      <trkpt lat="50.3214657" lon="7.2963072">
        <ele>182.7878418</ele>
        <time>2010-06-03T14:46:13Z</time>
      </trkpt>
      <trkpt lat="50.3214203" lon="7.2959872">
        <ele>182.7878418</ele>
        <time>2010-06-03T14:46:27Z</time>
      </trkpt>
      <trkpt lat="50.3213244" lon="7.2958714">
        <ele>180.3845215</ele>
        <time>2010-06-03T14:46:35Z</time>
      </trkpt>
      <trkpt lat="50.3213305" lon="7.2957470">
        <ele>179.9038086</ele>
        <time>2010-06-03T14:46:43Z</time>
      </trkpt>
      <trkpt lat="50.3214839" lon="7.2956099">
        <ele>180.3845215</ele>
        <time>2010-06-03T14:47:16Z</time>
      </trkpt>
      <trkpt lat="50.3214925" lon="7.2954718">
        <ele>183.7490234</ele>
        <time>2010-06-03T14:47:32Z</time>
      </trkpt>
      <trkpt lat="50.3214572" lon="7.2953217">
        <ele>186.6331787</ele>
        <time>2010-06-03T14:47:45Z</time>
      </trkpt>
      <trkpt lat="50.3214134" lon="7.2951504">
        <ele>190.9589844</ele>
        <time>2010-06-03T14:47:58Z</time>
      </trkpt>
      <trkpt lat="50.3213363" lon="7.2949490">
        <ele>193.8430176</ele>
        <time>2010-06-03T14:48:11Z</time>
      </trkpt>
      <trkpt lat="50.3212301" lon="7.2947959">
        <ele>197.6882324</ele>
        <time>2010-06-03T14:48:27Z</time>
      </trkpt>
      <trkpt lat="50.3211576" lon="7.2946815">
        <ele>200.5722656</ele>
        <time>2010-06-03T14:48:38Z</time>
      </trkpt>
      <trkpt lat="50.3211181" lon="7.2945538">
        <ele>203.4561768</ele>
        <time>2010-06-03T14:48:55Z</time>
      </trkpt>
      <trkpt lat="50.3211197" lon="7.2944230">
        <ele>207.3013916</ele>
        <time>2010-06-03T14:49:22Z</time>
      </trkpt>
      <trkpt lat="50.3211258" lon="7.2942434">
        <ele>211.1467285</ele>
        <time>2010-06-03T14:49:33Z</time>
      </trkpt>
      <trkpt lat="50.3211256" lon="7.2942299">
        <ele>211.1467285</ele>
        <time>2010-06-03T14:49:34Z</time>
      </trkpt>
      <trkpt lat="50.3211275" lon="7.2940352">
        <ele>214.5112305</ele>
        <time>2010-06-03T14:49:49Z</time>
      </trkpt>
      <trkpt lat="50.3211237" lon="7.2939860">
        <ele>215.9532471</ele>
        <time>2010-06-03T14:49:53Z</time>
      </trkpt>
      <trkpt lat="50.3211223" lon="7.2938596">
        <ele>219.3179932</ele>
        <time>2010-06-03T14:50:04Z</time>
      </trkpt>
      <trkpt lat="50.3211330" lon="7.2937611">
        <ele>222.2017822</ele>
        <time>2010-06-03T14:50:15Z</time>
      </trkpt>
      <trkpt lat="50.3211517" lon="7.2936373">
        <ele>226.0471191</ele>
        <time>2010-06-03T14:50:29Z</time>
      </trkpt>
      <trkpt lat="50.3211517" lon="7.2935663">
        <ele>227.4891357</ele>
        <time>2010-06-03T14:50:35Z</time>
      </trkpt>
      <trkpt lat="50.3211180" lon="7.2934671">
        <ele>231.3343506</ele>
        <time>2010-06-03T14:51:54Z</time>
      </trkpt>
      <trkpt lat="50.3211159" lon="7.2934663">
        <ele>231.3343506</ele>
        <time>2010-06-03T14:51:55Z</time>
      </trkpt>
      <trkpt lat="50.3211232" lon="7.2932623">
        <ele>233.7376709</ele>
        <time>2010-06-03T14:52:19Z</time>
      </trkpt>
      <trkpt lat="50.3211321" lon="7.2931008">
        <ele>235.6602783</ele>
        <time>2010-06-03T14:52:31Z</time>
      </trkpt>
      <trkpt lat="50.3211478" lon="7.2929171">
        <ele>238.5443115</ele>
        <time>2010-06-03T14:52:46Z</time>
      </trkpt>
      <trkpt lat="50.3211486" lon="7.2927795">
        <ele>240.4670410</ele>
        <time>2010-06-03T14:52:56Z</time>
      </trkpt>
      <trkpt lat="50.3211440" lon="7.2925344">
        <ele>243.3508301</ele>
        <time>2010-06-03T14:53:13Z</time>
      </trkpt>
      <trkpt lat="50.3211339" lon="7.2924352">
        <ele>245.7541504</ele>
        <time>2010-06-03T14:53:24Z</time>
      </trkpt>
      <trkpt lat="50.3210712" lon="7.2922276">
        <ele>248.6381836</ele>
        <time>2010-06-03T14:53:41Z</time>
      </trkpt>
      <trkpt lat="50.3210413" lon="7.2919265">
        <ele>251.5220947</ele>
        <time>2010-06-03T14:54:06Z</time>
      </trkpt>
      <trkpt lat="50.3210997" lon="7.2917038">
        <ele>253.4447021</ele>
        <time>2010-06-03T14:54:20Z</time>
      </trkpt>
      <trkpt lat="50.3211308" lon="7.2916551">
        <ele>253.4447021</ele>
        <time>2010-06-03T14:54:24Z</time>
      </trkpt>
      <trkpt lat="50.3212271" lon="7.2914405">
        <ele>254.4060059</ele>
        <time>2010-06-03T14:54:39Z</time>
      </trkpt>
      <trkpt lat="50.3212750" lon="7.2913690">
        <ele>254.4060059</ele>
        <time>2010-06-03T14:54:45Z</time>
      </trkpt>
      <trkpt lat="50.3213410" lon="7.2913258">
        <ele>255.3673096</ele>
        <time>2010-06-03T14:54:52Z</time>
      </trkpt>
      <trkpt lat="50.3215157" lon="7.2912866">
        <ele>256.8093262</ele>
        <time>2010-06-03T14:55:08Z</time>
      </trkpt>
      <trkpt lat="50.3216080" lon="7.2912383">
        <ele>258.2513428</ele>
        <time>2010-06-03T14:55:16Z</time>
      </trkpt>
      <trkpt lat="50.3216591" lon="7.2911822">
        <ele>257.7707520</ele>
        <time>2010-06-03T14:55:31Z</time>
      </trkpt>
      <trkpt lat="50.3216484" lon="7.2911881">
        <ele>258.2513428</ele>
        <time>2010-06-03T14:55:50Z</time>
      </trkpt>
      <trkpt lat="50.3216414" lon="7.2911757">
        <ele>258.2513428</ele>
        <time>2010-06-03T14:56:04Z</time>
      </trkpt>
      <trkpt lat="50.3216608" lon="7.2911082">
        <ele>258.7319336</ele>
        <time>2010-06-03T14:56:09Z</time>
      </trkpt>
      <trkpt lat="50.3217145" lon="7.2908759">
        <ele>259.6933594</ele>
        <time>2010-06-03T14:56:25Z</time>
      </trkpt>
      <trkpt lat="50.3217289" lon="7.2907071">
        <ele>259.6933594</ele>
        <time>2010-06-03T14:56:35Z</time>
      </trkpt>
      <trkpt lat="50.3217336" lon="7.2905047">
        <ele>261.1352539</ele>
        <time>2010-06-03T14:56:50Z</time>
      </trkpt>
      <trkpt lat="50.3217279" lon="7.2904461">
        <ele>260.6545410</ele>
        <time>2010-06-03T14:56:54Z</time>
      </trkpt>
      <trkpt lat="50.3217218" lon="7.2901946">
        <ele>262.5771484</ele>
        <time>2010-06-03T14:57:12Z</time>
      </trkpt>
      <trkpt lat="50.3216959" lon="7.2900816">
        <ele>263.5385742</ele>
        <time>2010-06-03T14:57:21Z</time>
      </trkpt>
      <trkpt lat="50.3216401" lon="7.2899662">
        <ele>265.9418945</ele>
        <time>2010-06-03T14:57:32Z</time>
      </trkpt>
      <trkpt lat="50.3215449" lon="7.2897531">
        <ele>267.3839111</ele>
        <time>2010-06-03T14:57:51Z</time>
      </trkpt>
      <trkpt lat="50.3214784" lon="7.2895715">
        <ele>270.2677002</ele>
        <time>2010-06-03T14:58:06Z</time>
      </trkpt>
      <trkpt lat="50.3214041" lon="7.2892052">
        <ele>273.6324463</ele>
        <time>2010-06-03T14:58:30Z</time>
      </trkpt>
      <trkpt lat="50.3214014" lon="7.2891862">
        <ele>273.6324463</ele>
        <time>2010-06-03T14:58:31Z</time>
      </trkpt>
      <trkpt lat="50.3214158" lon="7.2889881">
        <ele>274.1130371</ele>
        <time>2010-06-03T14:58:41Z</time>
      </trkpt>
      <trkpt lat="50.3213974" lon="7.2888349">
        <ele>274.5937500</ele>
        <time>2010-06-03T14:58:50Z</time>
      </trkpt>
      <trkpt lat="50.3213997" lon="7.2885738">
        <ele>276.5163574</ele>
        <time>2010-06-03T14:59:04Z</time>
      </trkpt>
      <trkpt lat="50.3214128" lon="7.2883067">
        <ele>276.0356445</ele>
        <time>2010-06-03T14:59:18Z</time>
      </trkpt>
      <trkpt lat="50.3214055" lon="7.2880931">
        <ele>276.5163574</ele>
        <time>2010-06-03T14:59:30Z</time>
      </trkpt>
      <trkpt lat="50.3213725" lon="7.2878663">
        <ele>276.9970703</ele>
        <time>2010-06-03T14:59:44Z</time>
      </trkpt>
      <trkpt lat="50.3213728" lon="7.2878543">
        <ele>277.4776611</ele>
        <time>2010-06-03T14:59:45Z</time>
      </trkpt>
      <trkpt lat="50.3212837" lon="7.2876649">
        <ele>279.4002686</ele>
        <time>2010-06-03T14:59:58Z</time>
      </trkpt>
      <trkpt lat="50.3211894" lon="7.2874702">
        <ele>279.4002686</ele>
        <time>2010-06-03T15:00:14Z</time>
      </trkpt>
      <trkpt lat="50.3211538" lon="7.2873805">
        <ele>278.9196777</ele>
        <time>2010-06-03T15:00:20Z</time>
      </trkpt>
      <trkpt lat="50.3211032" lon="7.2871288">
        <ele>277.9582520</ele>
        <time>2010-06-03T15:00:34Z</time>
      </trkpt>
      <trkpt lat="50.3210859" lon="7.2870583">
        <ele>277.4776611</ele>
        <time>2010-06-03T15:00:40Z</time>
      </trkpt>
      <trkpt lat="50.3210615" lon="7.2869213">
        <ele>276.5163574</ele>
        <time>2010-06-03T15:00:47Z</time>
      </trkpt>
      <trkpt lat="50.3210537" lon="7.2868905">
        <ele>276.0356445</ele>
        <time>2010-06-03T15:00:50Z</time>
      </trkpt>
      <trkpt lat="50.3210471" lon="7.2868350">
        <ele>276.0356445</ele>
        <time>2010-06-03T15:00:53Z</time>
      </trkpt>
      <trkpt lat="50.3210347" lon="7.2867382">
        <ele>275.0744629</ele>
        <time>2010-06-03T15:00:59Z</time>
      </trkpt>
      <trkpt lat="50.3209923" lon="7.2865455">
        <ele>273.6324463</ele>
        <time>2010-06-03T15:01:10Z</time>
      </trkpt>
      <trkpt lat="50.3209802" lon="7.2864603">
        <ele>272.6711426</ele>
        <time>2010-06-03T15:01:16Z</time>
      </trkpt>
      <trkpt lat="50.3210123" lon="7.2861739">
        <ele>270.2677002</ele>
        <time>2010-06-03T15:01:31Z</time>
      </trkpt>
      <trkpt lat="50.3210188" lon="7.2861391">
        <ele>269.3065186</ele>
        <time>2010-06-03T15:01:34Z</time>
      </trkpt>
      <trkpt lat="50.3210053" lon="7.2860528">
        <ele>269.3065186</ele>
        <time>2010-06-03T15:01:38Z</time>
      </trkpt>
      <trkpt lat="50.3210492" lon="7.2857870">
        <ele>267.3839111</ele>
        <time>2010-06-03T15:01:53Z</time>
      </trkpt>
      <trkpt lat="50.3210892" lon="7.2855503">
        <ele>265.9418945</ele>
        <time>2010-06-03T15:02:06Z</time>
      </trkpt>
      <trkpt lat="50.3210890" lon="7.2854884">
        <ele>264.9805908</ele>
        <time>2010-06-03T15:02:10Z</time>
      </trkpt>
      <trkpt lat="50.3211059" lon="7.2852942">
        <ele>264.0192871</ele>
        <time>2010-06-03T15:02:21Z</time>
      </trkpt>
      <trkpt lat="50.3211652" lon="7.2850560">
        <ele>263.0578613</ele>
        <time>2010-06-03T15:02:36Z</time>
      </trkpt>
      <trkpt lat="50.3211677" lon="7.2850342">
        <ele>263.0578613</ele>
        <time>2010-06-03T15:02:37Z</time>
      </trkpt>
      <trkpt lat="50.3212058" lon="7.2849239">
        <ele>262.5771484</ele>
        <time>2010-06-03T15:02:44Z</time>
      </trkpt>
      <trkpt lat="50.3212289" lon="7.2847959">
        <ele>262.0965576</ele>
        <time>2010-06-03T15:02:51Z</time>
      </trkpt>
      <trkpt lat="50.3212349" lon="7.2847323">
        <ele>261.6159668</ele>
        <time>2010-06-03T15:02:54Z</time>
      </trkpt>

      <trkpt lat="50.3213113" lon="7.2844980">
        <ele>264.0192871</ele>
        <time>2010-06-03T15:03:07Z</time>
      </trkpt>
      <trkpt lat="50.3214067" lon="7.2842469">
        <ele>265.4613037</ele>
        <time>2010-06-03T15:03:22Z</time>
      </trkpt>
      <trkpt lat="50.3214158" lon="7.2842173">
        <ele>265.4613037</ele>
        <time>2010-06-03T15:03:24Z</time>
      </trkpt>
      <trkpt lat="50.3214944" lon="7.2840400">
        <ele>265.9418945</ele>
        <time>2010-06-03T15:03:37Z</time>
      </trkpt>
      <trkpt lat="50.3215081" lon="7.2840009">
        <ele>266.4224854</ele>
        <time>2010-06-03T15:03:40Z</time>
      </trkpt>
      <trkpt lat="50.3215571" lon="7.2837959">
        <ele>266.4224854</ele>
        <time>2010-06-03T15:03:52Z</time>
      </trkpt>
      <trkpt lat="50.3216186" lon="7.2835501">
        <ele>268.8258057</ele>
        <time>2010-06-03T15:04:06Z</time>
      </trkpt>
      <trkpt lat="50.3216256" lon="7.2835351">
        <ele>268.8258057</ele>
        <time>2010-06-03T15:04:07Z</time>
      </trkpt>
      <trkpt lat="50.3216510" lon="7.2834461">
        <ele>268.8258057</ele>
        <time>2010-06-03T15:04:13Z</time>
      </trkpt>
      <trkpt lat="50.3215644" lon="7.2832605">
        <ele>271.7097168</ele>
        <time>2010-06-03T15:04:32Z</time>
      </trkpt>
      <trkpt lat="50.3214899" lon="7.2832533">
        <ele>275.0744629</ele>
        <time>2010-06-03T15:04:44Z</time>
      </trkpt>
      <trkpt lat="50.3213974" lon="7.2832311">
        <ele>277.9582520</ele>
        <time>2010-06-03T15:04:59Z</time>
      </trkpt>
      <trkpt lat="50.3212588" lon="7.2831975">
        <ele>280.3616943</ele>
        <time>2010-06-03T15:05:14Z</time>
      </trkpt>
      <trkpt lat="50.3210055" lon="7.2832481">
        <ele>276.9970703</ele>
        <time>2010-06-03T15:05:46Z</time>
      </trkpt>
      <trkpt lat="50.3208162" lon="7.2833456">
        <ele>273.6324463</ele>
        <time>2010-06-03T15:06:03Z</time>
      </trkpt>
      <trkpt lat="50.3207687" lon="7.2833326">
        <ele>271.7097168</ele>
        <time>2010-06-03T15:06:08Z</time>
      </trkpt>
      <trkpt lat="50.3206241" lon="7.2832689">
        <ele>268.3450928</ele>
        <time>2010-06-03T15:06:24Z</time>
      </trkpt>
      <trkpt lat="50.3205201" lon="7.2832020">
        <ele>267.3839111</ele>
        <time>2010-06-03T15:06:33Z</time>
      </trkpt>
      <trkpt lat="50.3204375" lon="7.2830105">
        <ele>263.0578613</ele>
        <time>2010-06-03T15:06:45Z</time>
      </trkpt>
      <trkpt lat="50.3203634" lon="7.2828098">
        <ele>260.1739502</ele>
        <time>2010-06-03T15:06:57Z</time>
      </trkpt>
      <trkpt lat="50.3203659" lon="7.2827876">
        <ele>260.1739502</ele>
        <time>2010-06-03T15:06:59Z</time>
      </trkpt>
      <trkpt lat="50.3203183" lon="7.2826961">
        <ele>258.2513428</ele>
        <time>2010-06-03T15:07:05Z</time>
      </trkpt>
      <trkpt lat="50.3202660" lon="7.2825398">
        <ele>257.7707520</ele>
        <time>2010-06-03T15:07:12Z</time>
      </trkpt>
      <trkpt lat="50.3202384" lon="7.2824564">
        <ele>256.8093262</ele>
        <time>2010-06-03T15:07:16Z</time>
      </trkpt>
      <trkpt lat="50.3202837" lon="7.2821797">
        <ele>253.9254150</ele>
        <time>2010-06-03T15:07:32Z</time>
      </trkpt>
      <trkpt lat="50.3202980" lon="7.2821741">
        <ele>253.9254150</ele>
        <time>2010-06-03T15:07:33Z</time>
      </trkpt>
      <trkpt lat="50.3203204" lon="7.2821676">
        <ele>252.4833984</ele>
        <time>2010-06-03T15:07:36Z</time>
      </trkpt>
      <trkpt lat="50.3203529" lon="7.2820070">
        <ele>251.5220947</ele>
        <time>2010-06-03T15:07:49Z</time>
      </trkpt>
      <trkpt lat="50.3203430" lon="7.2819568">
        <ele>251.0413818</ele>
        <time>2010-06-03T15:07:53Z</time>
      </trkpt>
      <trkpt lat="50.3203299" lon="7.2819371">
        <ele>249.5994873</ele>
        <time>2010-06-03T15:07:55Z</time>
      </trkpt>
      <trkpt lat="50.3203112" lon="7.2818101">
        <ele>247.1960449</ele>
        <time>2010-06-03T15:08:04Z</time>
      </trkpt>
      <trkpt lat="50.3202173" lon="7.2816949">
        <ele>245.2734375</ele>
        <time>2010-06-03T15:08:19Z</time>
      </trkpt>
      <trkpt lat="50.3201971" lon="7.2816722">
        <ele>245.7541504</ele>
        <time>2010-06-03T15:08:21Z</time>
      </trkpt>
      <trkpt lat="50.3200675" lon="7.2815244">
        <ele>245.7541504</ele>
        <time>2010-06-03T15:08:35Z</time>
      </trkpt>
      <trkpt lat="50.3199965" lon="7.2813967">
        <ele>245.2734375</ele>
        <time>2010-06-03T15:08:44Z</time>
      </trkpt>
      <trkpt lat="50.3199526" lon="7.2813323">
        <ele>244.7928467</ele>
        <time>2010-06-03T15:08:48Z</time>
      </trkpt>
      <trkpt lat="50.3197881" lon="7.2811847">
        <ele>243.8315430</ele>
        <time>2010-06-03T15:09:04Z</time>
      </trkpt>
      <trkpt lat="50.3196281" lon="7.2810031">
        <ele>242.8702393</ele>
        <time>2010-06-03T15:09:21Z</time>
      </trkpt>
      <trkpt lat="50.3194868" lon="7.2808142">
        <ele>242.8702393</ele>
        <time>2010-06-03T15:09:37Z</time>
      </trkpt>
      <trkpt lat="50.3193388" lon="7.2806175">
        <ele>241.4282227</ele>
        <time>2010-06-03T15:09:52Z</time>
      </trkpt>
      <trkpt lat="50.3192263" lon="7.2805018">
        <ele>241.4282227</ele>
        <time>2010-06-03T15:10:04Z</time>
      </trkpt>
      <trkpt lat="50.3190958" lon="7.2803758">
        <ele>240.9476318</ele>
        <time>2010-06-03T15:10:16Z</time>
      </trkpt>
      <trkpt lat="50.3189268" lon="7.2802740">
        <ele>240.9476318</ele>
        <time>2010-06-03T15:10:31Z</time>
      </trkpt>
      <trkpt lat="50.3188786" lon="7.2802556">
        <ele>200.0916748</ele>
        <time>2010-06-03T15:10:35Z</time>
      </trkpt>
      <trkpt lat="50.3188670" lon="7.2802532">
        <ele>231.3343506</ele>
        <time>2010-06-03T15:10:36Z</time>
      </trkpt>
      <trkpt lat="50.3188117" lon="7.2802410">
        <ele>200.0916748</ele>
        <time>2010-06-03T15:10:41Z</time>
      </trkpt>
      <trkpt lat="50.3188004" lon="7.2802224">
        <ele>200.0916748</ele>
        <time>2010-06-03T15:10:42Z</time>
      </trkpt>
      <trkpt lat="50.3187850" lon="7.2802152">
        <ele>199.6108398</ele>
        <time>2010-06-03T15:10:43Z</time>
      </trkpt>
      <trkpt lat="50.3186259" lon="7.2800919">
        <ele>200.5722656</ele>
        <time>2010-06-03T15:10:57Z</time>
      </trkpt>
      <trkpt lat="50.3185383" lon="7.2799769">
        <ele>198.6495361</ele>
        <time>2010-06-03T15:11:10Z</time>
      </trkpt>
      <trkpt lat="50.3185104" lon="7.2799365">
        <ele>197.6882324</ele>
        <time>2010-06-03T15:11:15Z</time>
      </trkpt>
      <trkpt lat="50.3183331" lon="7.2797253">
        <ele>197.2075195</ele>
        <time>2010-06-03T15:11:38Z</time>
      </trkpt>
      <trkpt lat="50.3183166" lon="7.2796719">
        <ele>197.2075195</ele>
        <time>2010-06-03T15:11:42Z</time>
      </trkpt>
      <trkpt lat="50.3182833" lon="7.2796241">
        <ele>196.7269287</ele>
        <time>2010-06-03T15:11:47Z</time>
      </trkpt>
      <trkpt lat="50.3181356" lon="7.2793865">
        <ele>197.2075195</ele>
        <time>2010-06-03T15:12:05Z</time>
      </trkpt>
      <trkpt lat="50.3180327" lon="7.2792478">
        <ele>197.6882324</ele>
        <time>2010-06-03T15:12:28Z</time>
      </trkpt>
      <trkpt lat="50.3180117" lon="7.2792129">
        <ele>197.2075195</ele>
        <time>2010-06-03T15:12:39Z</time>
      </trkpt>
      <trkpt lat="50.3178506" lon="7.2790247">
        <ele>197.6882324</ele>
        <time>2010-06-03T15:12:56Z</time>
      </trkpt>
      <trkpt lat="50.3178143" lon="7.2789910">
        <ele>197.2075195</ele>
        <time>2010-06-03T15:13:00Z</time>
      </trkpt>
      <trkpt lat="50.3176558" lon="7.2788331">
        <ele>196.7269287</ele>
        <time>2010-06-03T15:13:15Z</time>
      </trkpt>
      <trkpt lat="50.3175271" lon="7.2786969">
        <ele>195.7656250</ele>
        <time>2010-06-03T15:13:33Z</time>
      </trkpt>
      <trkpt lat="50.3175271" lon="7.2786969">
        <ele>195.7656250</ele>
        <time>2010-06-03T15:14:04Z</time>
      </trkpt>
      <trkpt lat="50.3175271" lon="7.2786969">
        <ele>195.7656250</ele>
        <time>2010-06-03T15:16:22Z</time>
      </trkpt>
      <trkpt lat="50.3160095" lon="7.2760029">
        <ele>195.7656250</ele>
        <time>2010-06-03T15:16:29Z</time>
      </trkpt>
      <trkpt lat="50.3159667" lon="7.2758395">
        <ele>194.8043213</ele>
        <time>2010-06-03T15:16:38Z</time>
      </trkpt>
      <trkpt lat="50.3159543" lon="7.2757281">
        <ele>194.8043213</ele>
        <time>2010-06-03T15:16:45Z</time>
      </trkpt>
      <trkpt lat="50.3159389" lon="7.2756456">
        <ele>194.3237305</ele>
        <time>2010-06-03T15:16:49Z</time>
      </trkpt>
      <trkpt lat="50.3159043" lon="7.2754977">
        <ele>194.8043213</ele>
        <time>2010-06-03T15:16:58Z</time>
      </trkpt>
      <trkpt lat="50.3158659" lon="7.2751752">
        <ele>194.3237305</ele>
        <time>2010-06-03T15:17:13Z</time>
      </trkpt>
      <trkpt lat="50.3158598" lon="7.2748465">
        <ele>194.8043213</ele>
        <time>2010-06-03T15:17:29Z</time>
      </trkpt>
      <trkpt lat="50.3158553" lon="7.2747336">
        <ele>194.8043213</ele>
        <time>2010-06-03T15:17:34Z</time>
      </trkpt>
      <trkpt lat="50.3158521" lon="7.2744748">
        <ele>195.2849121</ele>
        <time>2010-06-03T15:17:49Z</time>
      </trkpt>
      <trkpt lat="50.3158774" lon="7.2742693">
        <ele>194.3237305</ele>
        <time>2010-06-03T15:18:02Z</time>
      </trkpt>
      <trkpt lat="50.3158827" lon="7.2739493">
        <ele>195.2849121</ele>
        <time>2010-06-03T15:18:48Z</time>
      </trkpt>
      <trkpt lat="50.3158427" lon="7.2744751">
        <ele>196.7269287</ele>
        <time>2010-06-03T15:19:42Z</time>
      </trkpt>
      <trkpt lat="50.3158357" lon="7.2747357">
        <ele>197.2075195</ele>
        <time>2010-06-03T15:19:56Z</time>
      </trkpt>
      <trkpt lat="50.3158424" lon="7.2748802">
        <ele>197.6882324</ele>
        <time>2010-06-03T15:20:11Z</time>
      </trkpt>
      <trkpt lat="50.3158431" lon="7.2749804">
        <ele>198.1689453</ele>
        <time>2010-06-03T15:20:17Z</time>
      </trkpt>
      <trkpt lat="50.3158519" lon="7.2750200">
        <ele>198.6495361</ele>
        <time>2010-06-03T15:20:19Z</time>
      </trkpt>
      <trkpt lat="50.3158776" lon="7.2753485">
        <ele>198.6495361</ele>
        <time>2010-06-03T15:20:35Z</time>
      </trkpt>
      <trkpt lat="50.3159055" lon="7.2755334">
        <ele>197.6882324</ele>
        <time>2010-06-03T15:20:45Z</time>
      </trkpt>
      <trkpt lat="50.3159280" lon="7.2756905">
        <ele>198.6495361</ele>
        <time>2010-06-03T15:20:54Z</time>
      </trkpt>
      <trkpt lat="50.3160040" lon="7.2758695">
        <ele>200.0916748</ele>
        <time>2010-06-03T15:21:08Z</time>
      </trkpt>
      <trkpt lat="50.3161037" lon="7.2759790">
        <ele>198.6495361</ele>
        <time>2010-06-03T15:21:31Z</time>
      </trkpt>
      <trkpt lat="50.3162245" lon="7.2760659">
        <ele>198.6495361</ele>
        <time>2010-06-03T15:21:45Z</time>
      </trkpt>
      <trkpt lat="50.3164904" lon="7.2763933">
        <ele>200.0916748</ele>
        <time>2010-06-03T15:22:17Z</time>
      </trkpt>
      <trkpt lat="50.3166238" lon="7.2765676">
        <ele>199.6108398</ele>
        <time>2010-06-03T15:22:37Z</time>
      </trkpt>
      <trkpt lat="50.3168563" lon="7.2766559">
        <ele>200.0916748</ele>
        <time>2010-06-03T15:22:58Z</time>
      </trkpt>
      <trkpt lat="50.3169615" lon="7.2766748">
        <ele>200.0916748</ele>
        <time>2010-06-03T15:23:12Z</time>
      </trkpt>
      <trkpt lat="50.3171287" lon="7.2766522">
        <ele>200.5722656</ele>
        <time>2010-06-03T15:23:28Z</time>
      </trkpt>
      <trkpt lat="50.3172928" lon="7.2766849">
        <ele>199.6108398</ele>
        <time>2010-06-03T15:23:42Z</time>
      </trkpt>
      <trkpt lat="50.3174425" lon="7.2767305">
        <ele>199.6108398</ele>
        <time>2010-06-03T15:23:58Z</time>
      </trkpt>
      <trkpt lat="50.3175155" lon="7.2767914">
        <ele>198.6495361</ele>
        <time>2010-06-03T15:24:39Z</time>
      </trkpt>
      <trkpt lat="50.3175605" lon="7.2772494">
        <ele>197.2075195</ele>
        <time>2010-06-03T15:25:09Z</time>
      </trkpt>
      <trkpt lat="50.3176006" lon="7.2775661">
        <ele>195.7656250</ele>
        <time>2010-06-03T15:25:24Z</time>
      </trkpt>
      <trkpt lat="50.3176727" lon="7.2779192">
        <ele>193.8430176</ele>
        <time>2010-06-03T15:25:44Z</time>
      </trkpt>
      <trkpt lat="50.3177473" lon="7.2781267">
        <ele>192.8817139</ele>
        <time>2010-06-03T15:25:57Z</time>
      </trkpt>
      <trkpt lat="50.3178272" lon="7.2783217">
        <ele>191.9202881</ele>
        <time>2010-06-03T15:26:09Z</time>
      </trkpt>
      <trkpt lat="50.3178723" lon="7.2783920">
        <ele>191.9202881</ele>
        <time>2010-06-03T15:26:13Z</time>
      </trkpt>
      <trkpt lat="50.3180650" lon="7.2786594">
        <ele>189.5169678</ele>
        <time>2010-06-03T15:26:33Z</time>
      </trkpt>
      <trkpt lat="50.3182309" lon="7.2788334">
        <ele>188.0750732</ele>
        <time>2010-06-03T15:26:52Z</time>
      </trkpt>
      <trkpt lat="50.3183575" lon="7.2789363">
        <ele>186.6331787</ele>
        <time>2010-06-03T15:27:08Z</time>
      </trkpt>
      <trkpt lat="50.3184993" lon="7.2792305">
        <ele>184.7105713</ele>
        <time>2010-06-03T15:27:29Z</time>
      </trkpt>
      <trkpt lat="50.3187126" lon="7.2793390">
        <ele>183.2684326</ele>
        <time>2010-06-03T15:27:48Z</time>
      </trkpt>
      <trkpt lat="50.3190069" lon="7.2793931">
        <ele>179.9038086</ele>
        <time>2010-06-03T15:28:15Z</time>
      </trkpt>
      <trkpt lat="50.3192697" lon="7.2794624">
        <ele>176.5393066</ele>
        <time>2010-06-03T15:28:38Z</time>
      </trkpt>
      <trkpt lat="50.3194379" lon="7.2795539">
        <ele>175.0972900</ele>
        <time>2010-06-03T15:28:53Z</time>
      </trkpt>
      <trkpt lat="50.3196246" lon="7.2795775">
        <ele>172.6939697</ele>
        <time>2010-06-03T15:29:09Z</time>
      </trkpt>
      <trkpt lat="50.3196735" lon="7.2795944">
        <ele>172.6939697</ele>
        <time>2010-06-03T15:29:13Z</time>
      </trkpt>
      <trkpt lat="50.3198046" lon="7.2796130">
        <ele>171.2520752</ele>
        <time>2010-06-03T15:29:24Z</time>
      </trkpt>
      <trkpt lat="50.3199823" lon="7.2796531">
        <ele>170.2906494</ele>
        <time>2010-06-03T15:29:39Z</time>
      </trkpt>
      <trkpt lat="50.3201353" lon="7.2797003">
        <ele>169.8100586</ele>
        <time>2010-06-03T15:29:53Z</time>
      </trkpt>
      <trkpt lat="50.3204964" lon="7.2798348">
        <ele>169.3294678</ele>
        <time>2010-06-03T15:30:25Z</time>
      </trkpt>
      <trkpt lat="50.3206511" lon="7.2798930">
        <ele>167.8873291</ele>
        <time>2010-06-03T15:30:43Z</time>
      </trkpt>
      <trkpt lat="50.3208393" lon="7.2799695">
        <ele>167.4067383</ele>
        <time>2010-06-03T15:31:03Z</time>
      </trkpt>
      <trkpt lat="50.3209455" lon="7.2800039">
        <ele>167.8873291</ele>
        <time>2010-06-03T15:31:16Z</time>
      </trkpt>
      <trkpt lat="50.3210607" lon="7.2800175">
        <ele>167.4067383</ele>
        <time>2010-06-03T15:31:27Z</time>
      </trkpt>
      <trkpt lat="50.3211446" lon="7.2799871">
        <ele>169.3294678</ele>
        <time>2010-06-03T15:31:51Z</time>
      </trkpt>
      <trkpt lat="50.3213639" lon="7.2800808">
        <ele>169.3294678</ele>
        <time>2010-06-03T15:32:56Z</time>
      </trkpt>
      <trkpt lat="50.3215144" lon="7.2800882">
        <ele>169.3294678</ele>
        <time>2010-06-03T15:33:12Z</time>
      </trkpt>
      <trkpt lat="50.3216934" lon="7.2800360">
        <ele>170.2906494</ele>
        <time>2010-06-03T15:33:29Z</time>
      </trkpt>
      <trkpt lat="50.3218170" lon="7.2800433">
        <ele>172.2132568</ele>
        <time>2010-06-03T15:33:45Z</time>
      </trkpt>
      <trkpt lat="50.3219072" lon="7.2800204">
        <ele>171.2520752</ele>
        <time>2010-06-03T15:33:56Z</time>
      </trkpt>
      <trkpt lat="50.3220540" lon="7.2799959">
        <ele>171.2520752</ele>
        <time>2010-06-03T15:34:10Z</time>
      </trkpt>
      <trkpt lat="50.3221864" lon="7.2799684">
        <ele>170.7713623</ele>
        <time>2010-06-03T15:34:23Z</time>
      </trkpt>
      <trkpt lat="50.3226358" lon="7.2800184">
        <ele>170.7713623</ele>
        <time>2010-06-03T15:35:04Z</time>
      </trkpt>
      <trkpt lat="50.3228080" lon="7.2800662">
        <ele>170.7713623</ele>
        <time>2010-06-03T15:35:20Z</time>
      </trkpt>
      <trkpt lat="50.3230344" lon="7.2800982">
        <ele>170.7713623</ele>
        <time>2010-06-03T15:35:33Z</time>
      </trkpt>
      <trkpt lat="50.3233375" lon="7.2801979">
        <ele>170.2906494</ele>
        <time>2010-06-03T15:36:05Z</time>
      </trkpt>
      <trkpt lat="50.3234614" lon="7.2802303">
        <ele>170.2906494</ele>
        <time>2010-06-03T15:36:19Z</time>
      </trkpt>
      <trkpt lat="50.3235819" lon="7.2802393">
        <ele>169.3294678</ele>
        <time>2010-06-03T15:36:31Z</time>
      </trkpt>
      <trkpt lat="50.3240076" lon="7.2802947">
        <ele>172.2132568</ele>
        <time>2010-06-03T15:37:10Z</time>
      </trkpt>
      <trkpt lat="50.3241963" lon="7.2802645">
        <ele>170.7713623</ele>
        <time>2010-06-03T15:37:25Z</time>
      </trkpt>
      <trkpt lat="50.3242044" lon="7.2802465">
        <ele>170.7713623</ele>
        <time>2010-06-03T15:37:26Z</time>
      </trkpt>
      <trkpt lat="50.3242683" lon="7.2801675">
        <ele>170.7713623</ele>
        <time>2010-06-03T15:37:46Z</time>
      </trkpt>
      <trkpt lat="50.3243269" lon="7.2801214">
        <ele>171.2520752</ele>
        <time>2010-06-03T15:38:01Z</time>
      </trkpt>
      <trkpt lat="50.3245961" lon="7.2803880">
        <ele>171.2520752</ele>
        <time>2010-06-03T15:38:40Z</time>
      </trkpt>
      <trkpt lat="50.3246314" lon="7.2804409">
        <ele>171.2520752</ele>
        <time>2010-06-03T15:38:52Z</time>
      </trkpt>
      <trkpt lat="50.3245515" lon="7.2804544">
        <ele>172.2132568</ele>
        <time>2010-06-03T15:39:34Z</time>
      </trkpt>
      <trkpt lat="50.3245172" lon="7.2803768">
        <ele>172.6939697</ele>
        <time>2010-06-03T15:39:50Z</time>
      </trkpt>
      <trkpt lat="50.3244528" lon="7.2803078">
        <ele>172.2132568</ele>
        <time>2010-06-03T15:40:14Z</time>
      </trkpt>
      <trkpt lat="50.3243589" lon="7.2797702">
        <ele>171.2520752</ele>
        <time>2010-06-03T15:40:56Z</time>
      </trkpt>
      <trkpt lat="50.3243017" lon="7.2795698">
        <ele>172.6939697</ele>
        <time>2010-06-03T15:41:08Z</time>
      </trkpt>
      <trkpt lat="50.3242766" lon="7.2792762">
        <ele>173.6552734</ele>
        <time>2010-06-03T15:41:23Z</time>
      </trkpt>
      <trkpt lat="50.3243053" lon="7.2790437">
        <ele>173.1746826</ele>
        <time>2010-06-03T15:41:37Z</time>
      </trkpt>
      <trkpt lat="50.3243238" lon="7.2789091">
        <ele>173.1746826</ele>
        <time>2010-06-03T15:41:43Z</time>
      </trkpt>
      <trkpt lat="50.3244384" lon="7.2788520">
        <ele>173.1746826</ele>
        <time>2010-06-03T15:41:56Z</time>
      </trkpt>
      <trkpt lat="50.3246507" lon="7.2787097">
        <ele>173.6552734</ele>
        <time>2010-06-03T15:42:24Z</time>
      </trkpt>
      <trkpt lat="50.3247456" lon="7.2785408">
        <ele>175.0972900</ele>
        <time>2010-06-03T15:42:42Z</time>
      </trkpt>
      <trkpt lat="50.3249843" lon="7.2786324">
        <ele>174.6165771</ele>
        <time>2010-06-03T15:43:10Z</time>
      </trkpt>
      <trkpt lat="50.3251253" lon="7.2787178">
        <ele>174.6165771</ele>
        <time>2010-06-03T15:43:23Z</time>
      </trkpt>
      <trkpt lat="50.3251485" lon="7.2787502">
        <ele>174.6165771</ele>
        <time>2010-06-03T15:43:26Z</time>
      </trkpt>
      <trkpt lat="50.3253393" lon="7.2789714">
        <ele>175.5778809</ele>
        <time>2010-06-03T15:43:46Z</time>
      </trkpt>
      <trkpt lat="50.3255064" lon="7.2790852">
        <ele>176.0585938</ele>
        <time>2010-06-03T15:44:00Z</time>
      </trkpt>
      <trkpt lat="50.3255894" lon="7.2792382">
        <ele>176.0585938</ele>
        <time>2010-06-03T15:44:11Z</time>
      </trkpt>
      <trkpt lat="50.3256147" lon="7.2792770">
        <ele>176.0585938</ele>
        <time>2010-06-03T15:44:14Z</time>
      </trkpt>
      <trkpt lat="50.3256325" lon="7.2792992">
        <ele>176.0585938</ele>
        <time>2010-06-03T15:44:16Z</time>
      </trkpt>
      <trkpt lat="50.3256962" lon="7.2795658">
        <ele>177.0200195</ele>
        <time>2010-06-03T15:44:33Z</time>
      </trkpt>
      <trkpt lat="50.3257383" lon="7.2796491">
        <ele>176.0585938</ele>
        <time>2010-06-03T15:44:54Z</time>
      </trkpt>
      <trkpt lat="50.3256969" lon="7.2802336">
        <ele>176.5393066</ele>
        <time>2010-06-03T15:46:02Z</time>
      </trkpt>
      <trkpt lat="50.3256061" lon="7.2807274">
        <ele>178.9426270</ele>
        <time>2010-06-03T15:46:35Z</time>
      </trkpt>
      <trkpt lat="50.3256454" lon="7.2810021">
        <ele>180.3845215</ele>
        <time>2010-06-03T15:46:51Z</time>
      </trkpt>
      <trkpt lat="50.3256472" lon="7.2812122">
        <ele>180.8652344</ele>
        <time>2010-06-03T15:46:58Z</time>
      </trkpt>
      <trkpt lat="50.3256760" lon="7.2812749">
        <ele>180.8652344</ele>
        <time>2010-06-03T15:47:01Z</time>
      </trkpt>
      <trkpt lat="50.3258117" lon="7.2814297">
        <ele>181.8264160</ele>
        <time>2010-06-03T15:47:15Z</time>
      </trkpt>
      <trkpt lat="50.3258792" lon="7.2814724">
        <ele>182.3071289</ele>
        <time>2010-06-03T15:47:22Z</time>
      </trkpt>
      <trkpt lat="50.3258885" lon="7.2814806">
        <ele>182.7878418</ele>
        <time>2010-06-03T15:47:24Z</time>
      </trkpt>
      <trkpt lat="50.3260497" lon="7.2813944">
        <ele>182.7878418</ele>
        <time>2010-06-03T15:47:39Z</time>
      </trkpt>
      <trkpt lat="50.3261549" lon="7.2812857">
        <ele>183.7490234</ele>
        <time>2010-06-03T15:47:53Z</time>
      </trkpt>
      <trkpt lat="50.3262691" lon="7.2811474">
        <ele>184.7105713</ele>
        <time>2010-06-03T15:48:29Z</time>
      </trkpt>
      <trkpt lat="50.3263981" lon="7.2809706">
        <ele>184.7105713</ele>
        <time>2010-06-03T15:48:47Z</time>
      </trkpt>
      <trkpt lat="50.3264722" lon="7.2808363">
        <ele>182.7878418</ele>
        <time>2010-06-03T15:49:03Z</time>
      </trkpt>
      <trkpt lat="50.3264741" lon="7.2808333">
        <ele>184.7105713</ele>
        <time>2010-06-03T15:49:05Z</time>
      </trkpt>
      <trkpt lat="50.3264774" lon="7.2808301">
        <ele>184.2298584</ele>
        <time>2010-06-03T15:49:07Z</time>
      </trkpt>
      <trkpt lat="50.3265113" lon="7.2807757">
        <ele>185.6717529</ele>
        <time>2010-06-03T15:49:56Z</time>
      </trkpt>
      <trkpt lat="50.3266965" lon="7.2805763">
        <ele>185.6717529</ele>
        <time>2010-06-03T15:50:15Z</time>
      </trkpt>
      <trkpt lat="50.3267040" lon="7.2807299">
        <ele>188.0750732</ele>
        <time>2010-06-03T15:50:33Z</time>
      </trkpt>
      <trkpt lat="50.3266325" lon="7.2808238">
        <ele>189.0363770</ele>
        <time>2010-06-03T15:50:43Z</time>
      </trkpt>
      <trkpt lat="50.3265788" lon="7.2810543">
        <ele>189.5169678</ele>
        <time>2010-06-03T15:50:58Z</time>
      </trkpt>
      <trkpt lat="50.3265586" lon="7.2812036">
        <ele>189.9976807</ele>
        <time>2010-06-03T15:51:09Z</time>
      </trkpt>
      <trkpt lat="50.3265430" lon="7.2813689">
        <ele>191.4395752</ele>
        <time>2010-06-03T15:51:29Z</time>
      </trkpt>
      <trkpt lat="50.3265078" lon="7.2815558">
        <ele>191.4395752</ele>
        <time>2010-06-03T15:51:39Z</time>
      </trkpt>
      <trkpt lat="50.3264842" lon="7.2818256">
        <ele>190.9589844</ele>
        <time>2010-06-03T15:51:53Z</time>
      </trkpt>
      <trkpt lat="50.3264604" lon="7.2819728">
        <ele>190.9589844</ele>
        <time>2010-06-03T15:52:01Z</time>
      </trkpt>
      <trkpt lat="50.3264359" lon="7.2821132">
        <ele>191.4395752</ele>
        <time>2010-06-03T15:52:12Z</time>
      </trkpt>
      <trkpt lat="50.3264529" lon="7.2821040">
        <ele>191.9202881</ele>
        <time>2010-06-03T15:52:36Z</time>
      </trkpt>
      <trkpt lat="50.3264332" lon="7.2821515">
        <ele>191.4395752</ele>
        <time>2010-06-03T15:52:47Z</time>
      </trkpt>
      <trkpt lat="50.3264405" lon="7.2821986">
        <ele>192.4011230</ele>
        <time>2010-06-03T15:53:10Z</time>
      </trkpt>
      <trkpt lat="50.3264339" lon="7.2822067">
        <ele>202.0142822</ele>
        <time>2010-06-03T15:53:14Z</time>
      </trkpt>
      <trkpt lat="50.3264255" lon="7.2821930">
        <ele>203.4561768</ele>
        <time>2010-06-03T15:53:16Z</time>
      </trkpt>
      <trkpt lat="50.3264357" lon="7.2823737">
        <ele>202.0142822</ele>
        <time>2010-06-03T15:53:26Z</time>
      </trkpt>
      <trkpt lat="50.3264547" lon="7.2826041">
        <ele>202.9754639</ele>
        <time>2010-06-03T15:53:40Z</time>
      </trkpt>
      <trkpt lat="50.3264348" lon="7.2831571">
        <ele>202.9754639</ele>
        <time>2010-06-03T15:54:08Z</time>
      </trkpt>
      <trkpt lat="50.3264323" lon="7.2834939">
        <ele>202.9754639</ele>
        <time>2010-06-03T15:54:31Z</time>
      </trkpt>
      <trkpt lat="50.3264390" lon="7.2835057">
        <ele>202.9754639</ele>
        <time>2010-06-03T15:54:32Z</time>
      </trkpt>
      <trkpt lat="50.3264911" lon="7.2837920">
        <ele>202.4948730</ele>
        <time>2010-06-03T15:54:49Z</time>
      </trkpt>
      <trkpt lat="50.3265156" lon="7.2842527">
        <ele>203.9368896</ele>
        <time>2010-06-03T15:55:18Z</time>
      </trkpt>
      <trkpt lat="50.3265033" lon="7.2843076">
        <ele>203.4561768</ele>
        <time>2010-06-03T15:55:21Z</time>
      </trkpt>
      <trkpt lat="50.3264498" lon="7.2845747">
        <ele>204.4174805</ele>
        <time>2010-06-03T15:55:36Z</time>
      </trkpt>
      <trkpt lat="50.3264264" lon="7.2847802">
        <ele>204.4174805</ele>
        <time>2010-06-03T15:55:51Z</time>
      </trkpt>
      <trkpt lat="50.3264430" lon="7.2849384">
        <ele>204.8980713</ele>
        <time>2010-06-03T15:56:02Z</time>
      </trkpt>
      <trkpt lat="50.3264763" lon="7.2851551">
        <ele>205.3787842</ele>
        <time>2010-06-03T15:56:18Z</time>
      </trkpt>
      <trkpt lat="50.3264638" lon="7.2855847">
        <ele>206.3400879</ele>
        <time>2010-06-03T15:56:43Z</time>
      </trkpt>
      <trkpt lat="50.3264007" lon="7.2860218">
        <ele>207.7821045</ele>
        <time>2010-06-03T15:57:11Z</time>
      </trkpt>
      <trkpt lat="50.3263152" lon="7.2861103">
        <ele>207.3013916</ele>
        <time>2010-06-03T15:57:26Z</time>
      </trkpt>
      <trkpt lat="50.3262350" lon="7.2864002">
        <ele>208.7434082</ele>
        <time>2010-06-03T15:58:33Z</time>
      </trkpt>
      <trkpt lat="50.3261557" lon="7.2865768">
        <ele>210.6660156</ele>
        <time>2010-06-03T15:58:46Z</time>
      </trkpt>
      <trkpt lat="50.3261038" lon="7.2866453">
        <ele>209.2241211</ele>
        <time>2010-06-03T15:58:52Z</time>
      </trkpt>
      <trkpt lat="50.3260145" lon="7.2867141">
        <ele>210.1854248</ele>
        <time>2010-06-03T15:59:16Z</time>
      </trkpt>
      <trkpt lat="50.3259681" lon="7.2869708">
        <ele>210.1854248</ele>
        <time>2010-06-03T16:00:21Z</time>
      </trkpt>
      <trkpt lat="50.3258541" lon="7.2871728">
        <ele>210.1854248</ele>
        <time>2010-06-03T16:00:39Z</time>
      </trkpt>
      <trkpt lat="50.3256607" lon="7.2873203">
        <ele>211.1467285</ele>
        <time>2010-06-03T16:00:56Z</time>
      </trkpt>
      <trkpt lat="50.3255712" lon="7.2874214">
        <ele>210.6660156</ele>
        <time>2010-06-03T16:01:07Z</time>
      </trkpt>
      <trkpt lat="50.3254677" lon="7.2874707">
        <ele>210.6660156</ele>
        <time>2010-06-03T16:01:17Z</time>
      </trkpt>
      <trkpt lat="50.3253408" lon="7.2876935">
        <ele>211.1467285</ele>
        <time>2010-06-03T16:01:35Z</time>
      </trkpt>
      <trkpt lat="50.3252850" lon="7.2877607">
        <ele>211.1467285</ele>
        <time>2010-06-03T16:01:42Z</time>
      </trkpt>
      <trkpt lat="50.3251848" lon="7.2878924">
        <ele>210.6660156</ele>
        <time>2010-06-03T16:01:53Z</time>
      </trkpt>
      <trkpt lat="50.3251634" lon="7.2880035">
        <ele>214.0306396</ele>
        <time>2010-06-03T16:02:13Z</time>
      </trkpt>
      <trkpt lat="50.3251667" lon="7.2880033">
        <ele>214.9919434</ele>
        <time>2010-06-03T16:02:15Z</time>
      </trkpt>
      <trkpt lat="50.3252328" lon="7.2880605">
        <ele>215.9532471</ele>
        <time>2010-06-03T16:02:24Z</time>
      </trkpt>
      <trkpt lat="50.3252633" lon="7.2882470">
        <ele>215.4726563</ele>
        <time>2010-06-03T16:02:38Z</time>
      </trkpt>
      <trkpt lat="50.3253467" lon="7.2885298">
        <ele>216.4339600</ele>
        <time>2010-06-03T16:02:56Z</time>
      </trkpt>
      <trkpt lat="50.3254643" lon="7.2887383">
        <ele>217.8759766</ele>
        <time>2010-06-03T16:03:13Z</time>
      </trkpt>
      <trkpt lat="50.3255234" lon="7.2889932">
        <ele>218.8372803</ele>
        <time>2010-06-03T16:03:29Z</time>
      </trkpt>
      <trkpt lat="50.3256283" lon="7.2891846">
        <ele>219.3179932</ele>
        <time>2010-06-03T16:03:41Z</time>
      </trkpt>
      <trkpt lat="50.3257128" lon="7.2893867">
        <ele>219.7985840</ele>
        <time>2010-06-03T16:03:53Z</time>
      </trkpt>
      <trkpt lat="50.3257740" lon="7.2896269">
        <ele>220.2791748</ele>
        <time>2010-06-03T16:04:07Z</time>
      </trkpt>
      <trkpt lat="50.3257846" lon="7.2896594">
        <ele>220.2791748</ele>
        <time>2010-06-03T16:04:09Z</time>
      </trkpt>
      <trkpt lat="50.3258005" lon="7.2897320">
        <ele>220.2791748</ele>
        <time>2010-06-03T16:04:13Z</time>
      </trkpt>
      <trkpt lat="50.3258904" lon="7.2900202">
        <ele>221.2406006</ele>
        <time>2010-06-03T16:04:30Z</time>
      </trkpt>
      <trkpt lat="50.3259805" lon="7.2902348">
        <ele>218.8372803</ele>
        <time>2010-06-03T16:04:48Z</time>
      </trkpt>
      <trkpt lat="50.3260059" lon="7.2904426">
        <ele>216.9146729</ele>
        <time>2010-06-03T16:05:47Z</time>
      </trkpt>
      <trkpt lat="50.3260213" lon="7.2907251">
        <ele>218.3565674</ele>
        <time>2010-06-03T16:07:13Z</time>
      </trkpt>
      <trkpt lat="50.3260264" lon="7.2907551">
        <ele>217.8759766</ele>
        <time>2010-06-03T16:07:15Z</time>
      </trkpt>
      <trkpt lat="50.3260318" lon="7.2909003">
        <ele>219.3179932</ele>
        <time>2010-06-03T16:07:40Z</time>
      </trkpt>
      <trkpt lat="50.3260111" lon="7.2912650">
        <ele>220.7598877</ele>
        <time>2010-06-03T16:08:02Z</time>
      </trkpt>
      <trkpt lat="50.3259705" lon="7.2914997">
        <ele>220.7598877</ele>
        <time>2010-06-03T16:08:17Z</time>
      </trkpt>
      <trkpt lat="50.3258937" lon="7.2918036">
        <ele>222.2017822</ele>
        <time>2010-06-03T16:08:37Z</time>
      </trkpt>
      <trkpt lat="50.3258434" lon="7.2920046">
        <ele>222.6824951</ele>
        <time>2010-06-03T16:08:51Z</time>
      </trkpt>
      <trkpt lat="50.3257011" lon="7.2923200">
        <ele>223.6437988</ele>
        <time>2010-06-03T16:09:18Z</time>
      </trkpt>
      <trkpt lat="50.3256784" lon="7.2923396">
        <ele>225.5665283</ele>
        <time>2010-06-03T16:09:20Z</time>
      </trkpt>
      <trkpt lat="50.3255174" lon="7.2925686">
        <ele>227.0085449</ele>
        <time>2010-06-03T16:09:40Z</time>
      </trkpt>
      <trkpt lat="50.3254159" lon="7.2927103">
        <ele>228.9311523</ele>
        <time>2010-06-03T16:09:53Z</time>
      </trkpt>
      <trkpt lat="50.3253742" lon="7.2927419">
        <ele>229.4117432</ele>
        <time>2010-06-03T16:10:13Z</time>
      </trkpt>
      <trkpt lat="50.3253797" lon="7.2926490">
        <ele>229.4117432</ele>
        <time>2010-06-03T16:10:30Z</time>
      </trkpt>
      <trkpt lat="50.3253513" lon="7.2925946">
        <ele>228.9311523</ele>
        <time>2010-06-03T16:10:40Z</time>
      </trkpt>
      <trkpt lat="50.3252319" lon="7.2925742">
        <ele>228.4504395</ele>
        <time>2010-06-03T16:10:53Z</time>
      </trkpt>
      <trkpt lat="50.3252097" lon="7.2925685">
        <ele>228.4504395</ele>
        <time>2010-06-03T16:10:55Z</time>
      </trkpt>
      <trkpt lat="50.3251527" lon="7.2925696">
        <ele>227.4891357</ele>
        <time>2010-06-03T16:11:01Z</time>
      </trkpt>
      <trkpt lat="50.3250870" lon="7.2926179">
        <ele>226.5278320</ele>
        <time>2010-06-03T16:11:18Z</time>
      </trkpt>
      <trkpt lat="50.3251247" lon="7.2925876">
        <ele>227.4891357</ele>
        <time>2010-06-03T16:12:57Z</time>
      </trkpt>
      <trkpt lat="50.3252417" lon="7.2925822">
        <ele>228.9311523</ele>
        <time>2010-06-03T16:13:16Z</time>
      </trkpt>
      <trkpt lat="50.3253698" lon="7.2927617">
        <ele>231.3343506</ele>
        <time>2010-06-03T16:13:36Z</time>
      </trkpt>
      <trkpt lat="50.3254201" lon="7.2929204">
        <ele>233.2570801</ele>
        <time>2010-06-03T16:13:54Z</time>
      </trkpt>
      <trkpt lat="50.3254541" lon="7.2929836">
        <ele>233.7376709</ele>
        <time>2010-06-03T16:14:02Z</time>
      </trkpt>
      <trkpt lat="50.3254692" lon="7.2930014">
        <ele>233.7376709</ele>
        <time>2010-06-03T16:14:04Z</time>
      </trkpt>
      <trkpt lat="50.3256622" lon="7.2930855">
        <ele>236.6217041</ele>
        <time>2010-06-03T16:14:26Z</time>
      </trkpt>
      <trkpt lat="50.3257882" lon="7.2931990">
        <ele>238.5443115</ele>
        <time>2010-06-03T16:14:41Z</time>
      </trkpt>
      <trkpt lat="50.3258428" lon="7.2932607">
        <ele>239.9862061</ele>
        <time>2010-06-03T16:14:48Z</time>
      </trkpt>
      <trkpt lat="50.3259652" lon="7.2934004">
        <ele>241.9089355</ele>
        <time>2010-06-03T16:15:04Z</time>
      </trkpt>
      <trkpt lat="50.3260926" lon="7.2935498">
        <ele>243.8315430</ele>
        <time>2010-06-03T16:15:23Z</time>
      </trkpt>
      <trkpt lat="50.3261578" lon="7.2936305">
        <ele>244.3122559</ele>
        <time>2010-06-03T16:15:34Z</time>
      </trkpt>
      <trkpt lat="50.3262282" lon="7.2936798">
        <ele>245.2734375</ele>
        <time>2010-06-03T16:15:43Z</time>
      </trkpt>
      <trkpt lat="50.3264116" lon="7.2936548">
        <ele>246.7154541</ele>
        <time>2010-06-03T16:16:01Z</time>
      </trkpt>
      <trkpt lat="50.3264177" lon="7.2936572">
        <ele>246.7154541</ele>
        <time>2010-06-03T16:16:02Z</time>
      </trkpt>
      <trkpt lat="50.3265678" lon="7.2936612">
        <ele>249.5994873</ele>
        <time>2010-06-03T16:16:20Z</time>
      </trkpt>
      <trkpt lat="50.3267380" lon="7.2936823">
        <ele>250.5607910</ele>
        <time>2010-06-03T16:16:35Z</time>
      </trkpt>
      <trkpt lat="50.3268917" lon="7.2936664">
        <ele>251.5220947</ele>
        <time>2010-06-03T16:16:51Z</time>
      </trkpt>
      <trkpt lat="50.3269741" lon="7.2936007">
        <ele>252.4833984</ele>
        <time>2010-06-03T16:17:00Z</time>
      </trkpt>
      <trkpt lat="50.3270602" lon="7.2934302">
        <ele>254.4060059</ele>
        <time>2010-06-03T16:17:16Z</time>
      </trkpt>
      <trkpt lat="50.3271475" lon="7.2931814">
        <ele>255.8480225</ele>
        <time>2010-06-03T16:17:32Z</time>
      </trkpt>
      <trkpt lat="50.3272201" lon="7.2929587">
        <ele>256.8093262</ele>
        <time>2010-06-03T16:17:46Z</time>
      </trkpt>
      <trkpt lat="50.3273108" lon="7.2927230">
        <ele>257.7707520</ele>
        <time>2010-06-03T16:18:01Z</time>
      </trkpt>
      <trkpt lat="50.3273643" lon="7.2925961">
        <ele>258.2513428</ele>
        <time>2010-06-03T16:18:10Z</time>
      </trkpt>
      <trkpt lat="50.3274540" lon="7.2923792">
        <ele>260.1739502</ele>
        <time>2010-06-03T16:18:25Z</time>
      </trkpt>
      <trkpt lat="50.3275598" lon="7.2921334">
        <ele>259.6933594</ele>
        <time>2010-06-03T16:18:42Z</time>
      </trkpt>
      <trkpt lat="50.3275912" lon="7.2920992">
        <ele>258.7319336</ele>
        <time>2010-06-03T16:18:45Z</time>
      </trkpt>
      <trkpt lat="50.3276750" lon="7.2919967">
        <ele>257.7707520</ele>
        <time>2010-06-03T16:18:57Z</time>
      </trkpt>
      <trkpt lat="50.3277470" lon="7.2919921">
        <ele>256.8093262</ele>
        <time>2010-06-03T16:19:06Z</time>
      </trkpt>
      <trkpt lat="50.3277963" lon="7.2920473">
        <ele>257.7707520</ele>
        <time>2010-06-03T16:19:13Z</time>
      </trkpt>
      <trkpt lat="50.3278092" lon="7.2920812">
        <ele>256.3287354</ele>
        <time>2010-06-03T16:19:15Z</time>
      </trkpt>
      <trkpt lat="50.3278692" lon="7.2922218">
        <ele>255.8480225</ele>
        <time>2010-06-03T16:19:25Z</time>
      </trkpt>
      <trkpt lat="50.3278895" lon="7.2922965">
        <ele>256.3287354</ele>
        <time>2010-06-03T16:19:29Z</time>
      </trkpt>
      <trkpt lat="50.3279827" lon="7.2925636">
        <ele>255.3673096</ele>
        <time>2010-06-03T16:19:45Z</time>
      </trkpt>
      <trkpt lat="50.3280862" lon="7.2928370">
        <ele>254.4060059</ele>
        <time>2010-06-03T16:20:02Z</time>
      </trkpt>
      <trkpt lat="50.3281500" lon="7.2930784">
        <ele>253.9254150</ele>
        <time>2010-06-03T16:20:17Z</time>
      </trkpt>
      <trkpt lat="50.3282589" lon="7.2934004">
        <ele>252.4833984</ele>
        <time>2010-06-03T16:20:36Z</time>
      </trkpt>
      <trkpt lat="50.3283294" lon="7.2936529">
        <ele>252.0028076</ele>
        <time>2010-06-03T16:20:51Z</time>
      </trkpt>
      <trkpt lat="50.3284197" lon="7.2939048">
        <ele>251.5220947</ele>
        <time>2010-06-03T16:21:06Z</time>
      </trkpt>
      <trkpt lat="50.3284945" lon="7.2941769">
        <ele>251.5220947</ele>
        <time>2010-06-03T16:21:22Z</time>
      </trkpt>
      <trkpt lat="50.3285941" lon="7.2945026">
        <ele>251.0413818</ele>
        <time>2010-06-03T16:21:41Z</time>
      </trkpt>
      <trkpt lat="50.3287084" lon="7.2948562">
        <ele>249.5994873</ele>
        <time>2010-06-03T16:22:01Z</time>
      </trkpt>
      <trkpt lat="50.3288618" lon="7.2951644">
        <ele>249.1187744</ele>
        <time>2010-06-03T16:22:21Z</time>
      </trkpt>
      <trkpt lat="50.3290669" lon="7.2952492">
        <ele>249.5994873</ele>
        <time>2010-06-03T16:22:38Z</time>
      </trkpt>
      <trkpt lat="50.3291246" lon="7.2955245">
        <ele>250.0802002</ele>
        <time>2010-06-03T16:22:54Z</time>
      </trkpt>
      <trkpt lat="50.3291886" lon="7.2958257">
        <ele>249.5994873</ele>
        <time>2010-06-03T16:23:10Z</time>
      </trkpt>
      <trkpt lat="50.3292507" lon="7.2961479">
        <ele>249.5994873</ele>
        <time>2010-06-03T16:23:27Z</time>
      </trkpt>
      <trkpt lat="50.3293297" lon="7.2964362">
        <ele>250.5607910</ele>
        <time>2010-06-03T16:23:43Z</time>
      </trkpt>
      <trkpt lat="50.3293834" lon="7.2967490">
        <ele>250.5607910</ele>
        <time>2010-06-03T16:23:59Z</time>
      </trkpt>
      <trkpt lat="50.3294502" lon="7.2969992">
        <ele>250.5607910</ele>
        <time>2010-06-03T16:24:13Z</time>
      </trkpt>
      <trkpt lat="50.3295087" lon="7.2972453">
        <ele>249.5994873</ele>
        <time>2010-06-03T16:24:27Z</time>
      </trkpt>
      <trkpt lat="50.3294126" lon="7.2973308">
        <ele>250.0802002</ele>
        <time>2010-06-03T16:24:39Z</time>
      </trkpt>
      <trkpt lat="50.3293621" lon="7.2975955">
        <ele>249.5994873</ele>
        <time>2010-06-03T16:24:53Z</time>
      </trkpt>
      <trkpt lat="50.3294190" lon="7.2978670">
        <ele>251.0413818</ele>
        <time>2010-06-03T16:25:07Z</time>
      </trkpt>
      <trkpt lat="50.3294721" lon="7.2980808">
        <ele>251.5220947</ele>
        <time>2010-06-03T16:25:20Z</time>
      </trkpt>
      <trkpt lat="50.3293719" lon="7.2982517">
        <ele>251.0413818</ele>
        <time>2010-06-03T16:25:36Z</time>
      </trkpt>
      <trkpt lat="50.3291251" lon="7.2983387">
        <ele>249.1187744</ele>
        <time>2010-06-03T16:25:55Z</time>
      </trkpt>
      <trkpt lat="50.3288969" lon="7.2984393">
        <ele>245.7541504</ele>
        <time>2010-06-03T16:26:13Z</time>
      </trkpt>
      <trkpt lat="50.3286401" lon="7.2985211">
        <ele>243.3508301</ele>
        <time>2010-06-03T16:26:33Z</time>
      </trkpt>
      <trkpt lat="50.3284560" lon="7.2987382">
        <ele>241.9089355</ele>
        <time>2010-06-03T16:26:52Z</time>
      </trkpt>
      <trkpt lat="50.3285058" lon="7.2991074">
        <ele>240.4670410</ele>
        <time>2010-06-03T16:27:12Z</time>
      </trkpt>
      <trkpt lat="50.3285861" lon="7.2994020">
        <ele>239.9862061</ele>
        <time>2010-06-03T16:27:30Z</time>
      </trkpt>
      <trkpt lat="50.3286801" lon="7.2997768">
        <ele>238.0635986</ele>
        <time>2010-06-03T16:27:52Z</time>
      </trkpt>
      <trkpt lat="50.3287872" lon="7.3000014">
        <ele>238.5443115</ele>
        <time>2010-06-03T16:28:08Z</time>
      </trkpt>
      <trkpt lat="50.3288775" lon="7.3001764">
        <ele>238.5443115</ele>
        <time>2010-06-03T16:28:22Z</time>
      </trkpt>
      <trkpt lat="50.3290051" lon="7.3004181">
        <ele>239.0249023</ele>
        <time>2010-06-03T16:28:39Z</time>
      </trkpt>
      <trkpt lat="50.3291701" lon="7.3006865">
        <ele>238.5443115</ele>
        <time>2010-06-03T16:28:58Z</time>
      </trkpt>
      <trkpt lat="50.3292448" lon="7.3008000">
        <ele>238.5443115</ele>
        <time>2010-06-03T16:29:08Z</time>
      </trkpt>
      <trkpt lat="50.3292930" lon="7.3008666">
        <ele>238.5443115</ele>
        <time>2010-06-03T16:29:14Z</time>
      </trkpt>
      <trkpt lat="50.3294335" lon="7.3011094">
        <ele>239.9862061</ele>
        <time>2010-06-03T16:29:32Z</time>
      </trkpt>
      <trkpt lat="50.3295572" lon="7.3013537">
        <ele>240.4670410</ele>
        <time>2010-06-03T16:29:49Z</time>
      </trkpt>
      <trkpt lat="50.3296005" lon="7.3014367">
        <ele>240.4670410</ele>
        <time>2010-06-03T16:29:55Z</time>
      </trkpt>
      <trkpt lat="50.3297359" lon="7.3016437">
        <ele>240.9476318</ele>
        <time>2010-06-03T16:30:11Z</time>
      </trkpt>
      <trkpt lat="50.3298715" lon="7.3018391">
        <ele>239.5054932</ele>
        <time>2010-06-03T16:30:27Z</time>
      </trkpt>
      <trkpt lat="50.3298800" lon="7.3019452">
        <ele>239.5054932</ele>
        <time>2010-06-03T16:30:36Z</time>
      </trkpt>
      <trkpt lat="50.3298065" lon="7.3021950">
        <ele>236.1409912</ele>
        <time>2010-06-03T16:30:59Z</time>
      </trkpt>
      <trkpt lat="50.3297758" lon="7.3023324">
        <ele>233.7376709</ele>
        <time>2010-06-03T16:31:14Z</time>
      </trkpt>
      <trkpt lat="50.3297122" lon="7.3024283">
        <ele>232.2957764</ele>
        <time>2010-06-03T16:31:24Z</time>
      </trkpt>
      <trkpt lat="50.3296615" lon="7.3024613">
        <ele>231.8149414</ele>
        <time>2010-06-03T16:31:29Z</time>
      </trkpt>
      <trkpt lat="50.3295503" lon="7.3026878">
        <ele>228.4504395</ele>
        <time>2010-06-03T16:31:48Z</time>
      </trkpt>
      <trkpt lat="50.3295362" lon="7.3027135">
        <ele>228.9311523</ele>
        <time>2010-06-03T16:31:50Z</time>
      </trkpt>
      <trkpt lat="50.3294931" lon="7.3028694">
        <ele>226.0471191</ele>
        <time>2010-06-03T16:32:04Z</time>
      </trkpt>
      <trkpt lat="50.3293980" lon="7.3030305">
        <ele>225.5665283</ele>
        <time>2010-06-03T16:32:33Z</time>
      </trkpt>
      <trkpt lat="50.3293346" lon="7.3031123">
        <ele>225.0859375</ele>
        <time>2010-06-03T16:32:57Z</time>
      </trkpt>
      <trkpt lat="50.3292901" lon="7.3031195">
        <ele>225.0859375</ele>
        <time>2010-06-03T16:33:09Z</time>
      </trkpt>
      <trkpt lat="50.3291408" lon="7.3030964">
        <ele>226.0471191</ele>
        <time>2010-06-03T16:33:24Z</time>
      </trkpt>
      <trkpt lat="50.3290188" lon="7.3030267">
        <ele>225.5665283</ele>
        <time>2010-06-03T16:33:37Z</time>
      </trkpt>
      <trkpt lat="50.3288206" lon="7.3029952">
        <ele>225.5665283</ele>
        <time>2010-06-03T16:33:54Z</time>
      </trkpt>
      <trkpt lat="50.3287057" lon="7.3029950">
        <ele>226.0471191</ele>
        <time>2010-06-03T16:34:06Z</time>
      </trkpt>
      <trkpt lat="50.3285612" lon="7.3030420">
        <ele>227.4891357</ele>
        <time>2010-06-03T16:34:20Z</time>
      </trkpt>
      <trkpt lat="50.3283371" lon="7.3030480">
        <ele>230.3730469</ele>
        <time>2010-06-03T16:34:42Z</time>
      </trkpt>
      <trkpt lat="50.3281728" lon="7.3030616">
        <ele>234.2183838</ele>
        <time>2010-06-03T16:34:59Z</time>
      </trkpt>
      <trkpt lat="50.3281099" lon="7.3030583">
        <ele>233.7376709</ele>
        <time>2010-06-03T16:35:02Z</time>
      </trkpt>
      <trkpt lat="50.3279461" lon="7.3030970">
        <ele>237.1022949</ele>
        <time>2010-06-03T16:35:17Z</time>
      </trkpt>
      <trkpt lat="50.3279132" lon="7.3031659">
        <ele>240.4670410</ele>
        <time>2010-06-03T16:35:33Z</time>
      </trkpt>
      <trkpt lat="50.3278407" lon="7.3033705">
        <ele>243.8315430</ele>
        <time>2010-06-03T16:35:54Z</time>
      </trkpt>
      <trkpt lat="50.3279031" lon="7.3034933">
        <ele>246.2348633</ele>
        <time>2010-06-03T16:36:12Z</time>
      </trkpt>
      <trkpt lat="50.3278895" lon="7.3035825">
        <ele>248.1575928</ele>
        <time>2010-06-03T16:36:33Z</time>
      </trkpt>
      <trkpt lat="50.3277677" lon="7.3035044">
        <ele>248.1575928</ele>
        <time>2010-06-03T16:36:46Z</time>
      </trkpt>
      <trkpt lat="50.3277501" lon="7.3034817">
        <ele>248.1575928</ele>
        <time>2010-06-03T16:36:48Z</time>
      </trkpt>
      <trkpt lat="50.3276803" lon="7.3034333">
        <ele>247.6767578</ele>
        <time>2010-06-03T16:36:55Z</time>
      </trkpt>
      <trkpt lat="50.3275460" lon="7.3033469">
        <ele>247.6767578</ele>
        <time>2010-06-03T16:37:14Z</time>
      </trkpt>
      <trkpt lat="50.3274769" lon="7.3033052">
        <ele>246.7154541</ele>
        <time>2010-06-03T16:37:24Z</time>
      </trkpt>
      <trkpt lat="50.3272938" lon="7.3033346">
        <ele>245.2734375</ele>
        <time>2010-06-03T16:37:41Z</time>
      </trkpt>
      <trkpt lat="50.3272227" lon="7.3033365">
        <ele>245.7541504</ele>
        <time>2010-06-03T16:38:07Z</time>
      </trkpt>
      <trkpt lat="50.3271658" lon="7.3034640">
        <ele>242.3896484</ele>
        <time>2010-06-03T16:38:36Z</time>
      </trkpt>
      <trkpt lat="50.3271470" lon="7.3035865">
        <ele>240.9476318</ele>
        <time>2010-06-03T16:38:43Z</time>
      </trkpt>
      <trkpt lat="50.3271217" lon="7.3037645">
        <ele>238.5443115</ele>
        <time>2010-06-03T16:38:55Z</time>
      </trkpt>
      <trkpt lat="50.3269775" lon="7.3039441">
        <ele>237.1022949</ele>
        <time>2010-06-03T16:39:14Z</time>
      </trkpt>
      <trkpt lat="50.3268902" lon="7.3041035">
        <ele>238.5443115</ele>
        <time>2010-06-03T16:39:30Z</time>
      </trkpt>
      <trkpt lat="50.3268463" lon="7.3043347">
        <ele>239.0249023</ele>
        <time>2010-06-03T16:39:45Z</time>
      </trkpt>
      <trkpt lat="50.3268220" lon="7.3045806">
        <ele>239.9862061</ele>
        <time>2010-06-03T16:40:00Z</time>
      </trkpt>
      <trkpt lat="50.3268156" lon="7.3048274">
        <ele>240.9476318</ele>
        <time>2010-06-03T16:40:14Z</time>
      </trkpt>
      <trkpt lat="50.3268573" lon="7.3051217">
        <ele>239.9862061</ele>
        <time>2010-06-03T16:40:31Z</time>
      </trkpt>
      <trkpt lat="50.3268669" lon="7.3052781">
        <ele>240.4670410</ele>
        <time>2010-06-03T16:40:50Z</time>
      </trkpt>
      <trkpt lat="50.3268138" lon="7.3052981">
        <ele>239.0249023</ele>
        <time>2010-06-03T16:41:29Z</time>
      </trkpt>
      <trkpt lat="50.3266905" lon="7.3052374">
        <ele>238.5443115</ele>
        <time>2010-06-03T16:41:42Z</time>
      </trkpt>
      <trkpt lat="50.3265592" lon="7.3051395">
        <ele>238.5443115</ele>
        <time>2010-06-03T16:41:58Z</time>
      </trkpt>
      <trkpt lat="50.3264328" lon="7.3050211">
        <ele>238.5443115</ele>
        <time>2010-06-03T16:42:11Z</time>
      </trkpt>
      <trkpt lat="50.3262716" lon="7.3048823">
        <ele>238.5443115</ele>
        <time>2010-06-03T16:42:27Z</time>
      </trkpt>
      <trkpt lat="50.3260857" lon="7.3047264">
        <ele>239.9862061</ele>
        <time>2010-06-03T16:42:44Z</time>
      </trkpt>
      <trkpt lat="50.3259018" lon="7.3045679">
        <ele>239.9862061</ele>
        <time>2010-06-03T16:43:01Z</time>
      </trkpt>
      <trkpt lat="50.3257132" lon="7.3044332">
        <ele>240.4670410</ele>
        <time>2010-06-03T16:43:18Z</time>
      </trkpt>
      <trkpt lat="50.3255355" lon="7.3043037">
        <ele>241.4282227</ele>
        <time>2010-06-03T16:43:35Z</time>
      </trkpt>
      <trkpt lat="50.3253532" lon="7.3041177">
        <ele>242.8702393</ele>
        <time>2010-06-03T16:43:51Z</time>
      </trkpt>
      <trkpt lat="50.3251839" lon="7.3039760">
        <ele>243.8315430</ele>
        <time>2010-06-03T16:44:07Z</time>
      </trkpt>
      <trkpt lat="50.3251636" lon="7.3039603">
        <ele>243.8315430</ele>
        <time>2010-06-03T16:44:09Z</time>
      </trkpt>
      <trkpt lat="50.3249885" lon="7.3037733">
        <ele>244.7928467</ele>
        <time>2010-06-03T16:44:25Z</time>
      </trkpt>
      <trkpt lat="50.3248301" lon="7.3035870">
        <ele>245.7541504</ele>
        <time>2010-06-03T16:44:41Z</time>
      </trkpt>
      <trkpt lat="50.3246993" lon="7.3033557">
        <ele>246.7154541</ele>
        <time>2010-06-03T16:44:57Z</time>
      </trkpt>
      <trkpt lat="50.3246221" lon="7.3033203">
        <ele>243.3508301</ele>
        <time>2010-06-03T16:45:28Z</time>
      </trkpt>
      <trkpt lat="50.3246084" lon="7.3034689">
        <ele>242.3896484</ele>
        <time>2010-06-03T16:45:50Z</time>
      </trkpt>
      <trkpt lat="50.3245838" lon="7.3036638">
        <ele>242.3896484</ele>
        <time>2010-06-03T16:46:04Z</time>
      </trkpt>
      <trkpt lat="50.3244999" lon="7.3039860">
        <ele>240.9476318</ele>
        <time>2010-06-03T16:46:26Z</time>
      </trkpt>
      <trkpt lat="50.3244193" lon="7.3041674">
        <ele>238.0635986</ele>
        <time>2010-06-03T16:46:42Z</time>
      </trkpt>
      <trkpt lat="50.3244330" lon="7.3042226">
        <ele>236.6217041</ele>
        <time>2010-06-03T16:46:48Z</time>
      </trkpt>
      <trkpt lat="50.3244450" lon="7.3042638">
        <ele>236.6217041</ele>
        <time>2010-06-03T16:46:51Z</time>
      </trkpt>
      <trkpt lat="50.3243697" lon="7.3044399">
        <ele>235.6602783</ele>
        <time>2010-06-03T16:47:04Z</time>
      </trkpt>
      <trkpt lat="50.3242795" lon="7.3046493">
        <ele>234.2183838</ele>
        <time>2010-06-03T16:47:20Z</time>
      </trkpt>
      <trkpt lat="50.3241522" lon="7.3049031">
        <ele>232.7764893</ele>
        <time>2010-06-03T16:47:37Z</time>
      </trkpt>
      <trkpt lat="50.3240941" lon="7.3049724">
        <ele>232.2957764</ele>
        <time>2010-06-03T16:47:44Z</time>
      </trkpt>
      <trkpt lat="50.3239842" lon="7.3051705">
        <ele>235.6602783</ele>
        <time>2010-06-03T16:48:00Z</time>
      </trkpt>
      <trkpt lat="50.3239419" lon="7.3052542">
        <ele>237.5828857</ele>
        <time>2010-06-03T16:48:07Z</time>
      </trkpt>
      <trkpt lat="50.3238796" lon="7.3053231">
        <ele>240.4670410</ele>
        <time>2010-06-03T16:48:19Z</time>
      </trkpt>
      <trkpt lat="50.3238030" lon="7.3053695">
        <ele>243.8315430</ele>
        <time>2010-06-03T16:48:36Z</time>
      </trkpt>
      <trkpt lat="50.3237253" lon="7.3054352">
        <ele>246.7154541</ele>
        <time>2010-06-03T16:48:46Z</time>
      </trkpt>
      <trkpt lat="50.3237159" lon="7.3054335">
        <ele>247.6767578</ele>
        <time>2010-06-03T16:48:48Z</time>
      </trkpt>
      <trkpt lat="50.3236590" lon="7.3054428">
        <ele>249.5994873</ele>
        <time>2010-06-03T16:49:14Z</time>
      </trkpt>
      <trkpt lat="50.3236199" lon="7.3055586">
        <ele>248.6381836</ele>
        <time>2010-06-03T16:49:27Z</time>
      </trkpt>
      <trkpt lat="50.3235791" lon="7.3056562">
        <ele>247.6767578</ele>
        <time>2010-06-03T16:49:35Z</time>
      </trkpt>
      <trkpt lat="50.3234765" lon="7.3057106">
        <ele>245.7541504</ele>
        <time>2010-06-03T16:49:44Z</time>
      </trkpt>
      <trkpt lat="50.3232908" lon="7.3056577">
        <ele>245.7541504</ele>
        <time>2010-06-03T16:49:59Z</time>
      </trkpt>
      <trkpt lat="50.3232354" lon="7.3056232">
        <ele>245.2734375</ele>
        <time>2010-06-03T16:50:16Z</time>
      </trkpt>
      <trkpt lat="50.3231047" lon="7.3055592">
        <ele>244.7928467</ele>
        <time>2010-06-03T16:50:37Z</time>
      </trkpt>
      <trkpt lat="50.3230656" lon="7.3055686">
        <ele>244.3122559</ele>
        <time>2010-06-03T16:50:41Z</time>
      </trkpt>
      <trkpt lat="50.3229542" lon="7.3056215">
        <ele>240.4670410</ele>
        <time>2010-06-03T16:50:57Z</time>
      </trkpt>
      <trkpt lat="50.3228795" lon="7.3055959">
        <ele>237.5828857</ele>
        <time>2010-06-03T16:51:08Z</time>
      </trkpt>
      <trkpt lat="50.3228751" lon="7.3055992">
        <ele>237.5828857</ele>
        <time>2010-06-03T16:51:09Z</time>
      </trkpt>
      <trkpt lat="50.3228126" lon="7.3055748">
        <ele>235.1796875</ele>
        <time>2010-06-03T16:51:16Z</time>
      </trkpt>
      <trkpt lat="50.3227679" lon="7.3055321">
        <ele>234.6990967</ele>
        <time>2010-06-03T16:51:21Z</time>
      </trkpt>
      <trkpt lat="50.3226580" lon="7.3055288">
        <ele>234.2183838</ele>
        <time>2010-06-03T16:51:36Z</time>
      </trkpt>
      <trkpt lat="50.3224793" lon="7.3055876">
        <ele>231.3343506</ele>
        <time>2010-06-03T16:51:54Z</time>
      </trkpt>
      <trkpt lat="50.3224185" lon="7.3055957">
        <ele>229.4117432</ele>
        <time>2010-06-03T16:52:01Z</time>
      </trkpt>
      <trkpt lat="50.3223177" lon="7.3056118">
        <ele>226.5278320</ele>
        <time>2010-06-03T16:52:13Z</time>
      </trkpt>
      <trkpt lat="50.3222450" lon="7.3056385">
        <ele>223.1632080</ele>
        <time>2010-06-03T16:52:29Z</time>
      </trkpt>
      <trkpt lat="50.3222454" lon="7.3056456">
        <ele>222.6824951</ele>
        <time>2010-06-03T16:52:30Z</time>
      </trkpt>
      <trkpt lat="50.3222453" lon="7.3056935">
        <ele>221.2406006</ele>
        <time>2010-06-03T16:52:43Z</time>
      </trkpt>
      <trkpt lat="50.3222587" lon="7.3057235">
        <ele>223.1632080</ele>
        <time>2010-06-03T16:53:04Z</time>
      </trkpt>
      <trkpt lat="50.3221805" lon="7.3055945">
        <ele>221.7211914</ele>
        <time>2010-06-03T16:53:21Z</time>
      </trkpt>
      <trkpt lat="50.3221888" lon="7.3054786">
        <ele>218.3565674</ele>
        <time>2010-06-03T16:53:35Z</time>
      </trkpt>
      <trkpt lat="50.3222086" lon="7.3052438">
        <ele>215.9532471</ele>
        <time>2010-06-03T16:53:51Z</time>
      </trkpt>
      <trkpt lat="50.3221847" lon="7.3051427">
        <ele>212.1080322</ele>
        <time>2010-06-03T16:54:04Z</time>
      </trkpt>
      <trkpt lat="50.3221974" lon="7.3050688">
        <ele>210.6660156</ele>
        <time>2010-06-03T16:54:09Z</time>
      </trkpt>
      <trkpt lat="50.3222347" lon="7.3049568">
        <ele>209.7048340</ele>
        <time>2010-06-03T16:54:17Z</time>
      </trkpt>
      <trkpt lat="50.3222402" lon="7.3047325">
        <ele>207.3013916</ele>
        <time>2010-06-03T16:54:33Z</time>
      </trkpt>
      <trkpt lat="50.3222528" lon="7.3045671">
        <ele>206.3400879</ele>
        <time>2010-06-03T16:54:50Z</time>
      </trkpt>
      <trkpt lat="50.3225072" lon="7.3045583">
        <ele>202.9754639</ele>
        <time>2010-06-03T16:55:22Z</time>
      </trkpt>
      <trkpt lat="50.3225813" lon="7.3045710">
        <ele>202.4948730</ele>
        <time>2010-06-03T16:55:31Z</time>
      </trkpt>
      <trkpt lat="50.3226497" lon="7.3045862">
        <ele>201.5335693</ele>
        <time>2010-06-03T16:55:35Z</time>
      </trkpt>
      <trkpt lat="50.3227627" lon="7.3045993">
        <ele>201.5335693</ele>
        <time>2010-06-03T16:55:45Z</time>
      </trkpt>
      <trkpt lat="50.3228264" lon="7.3045888">
        <ele>201.5335693</ele>
        <time>2010-06-03T16:55:51Z</time>
      </trkpt>
      <trkpt lat="50.3229800" lon="7.3046619">
        <ele>201.5335693</ele>
        <time>2010-06-03T16:56:02Z</time>
      </trkpt>
      <trkpt lat="50.3230952" lon="7.3046953">
        <ele>202.0142822</ele>
        <time>2010-06-03T16:56:12Z</time>
      </trkpt>
      <trkpt lat="50.3232472" lon="7.3046888">
        <ele>202.4948730</ele>
        <time>2010-06-03T16:56:25Z</time>
      </trkpt>
      <trkpt lat="50.3233744" lon="7.3045654">
        <ele>201.5335693</ele>
        <time>2010-06-03T16:56:38Z</time>
      </trkpt>
      <trkpt lat="50.3234021" lon="7.3045513">
        <ele>201.5335693</ele>
        <time>2010-06-03T16:56:40Z</time>
      </trkpt>
      <trkpt lat="50.3234717" lon="7.3045288">
        <ele>201.5335693</ele>
        <time>2010-06-03T16:56:45Z</time>
      </trkpt>
      <trkpt lat="50.3234936" lon="7.3045224">
        <ele>200.5722656</ele>
        <time>2010-06-03T16:56:47Z</time>
      </trkpt>
      <trkpt lat="50.3235114" lon="7.3045098">
        <ele>201.0528564</ele>
        <time>2010-06-03T16:56:49Z</time>
      </trkpt>
      <trkpt lat="50.3235557" lon="7.3044513">
        <ele>200.5722656</ele>
        <time>2010-06-03T16:56:55Z</time>
      </trkpt>
      <trkpt lat="50.3236751" lon="7.3043645">
        <ele>201.0528564</ele>
        <time>2010-06-03T16:57:08Z</time>
      </trkpt>
      <trkpt lat="50.3237460" lon="7.3043166">
        <ele>202.0142822</ele>
        <time>2010-06-03T16:57:16Z</time>
      </trkpt>
      <trkpt lat="50.3237691" lon="7.3043040">
        <ele>202.4948730</ele>
        <time>2010-06-03T16:57:19Z</time>
      </trkpt>
      <trkpt lat="50.3237936" lon="7.3040937">
        <ele>200.0916748</ele>
        <time>2010-06-03T16:57:33Z</time>
      </trkpt>
      <trkpt lat="50.3238285" lon="7.3038429">
        <ele>198.1689453</ele>
        <time>2010-06-03T16:57:48Z</time>
      </trkpt>
      <trkpt lat="50.3238372" lon="7.3038268">
        <ele>198.6495361</ele>
        <time>2010-06-03T16:57:49Z</time>
      </trkpt>
      <trkpt lat="50.3238681" lon="7.3036494">
        <ele>198.6495361</ele>
        <time>2010-06-03T16:58:00Z</time>
      </trkpt>
      <trkpt lat="50.3238854" lon="7.3034692">
        <ele>198.6495361</ele>
        <time>2010-06-03T16:58:11Z</time>
      </trkpt>
      <trkpt lat="50.3239144" lon="7.3033252">
        <ele>197.6882324</ele>
        <time>2010-06-03T16:58:18Z</time>
      </trkpt>
      <trkpt lat="50.3239163" lon="7.3030496">
        <ele>197.2075195</ele>
        <time>2010-06-03T16:58:33Z</time>
      </trkpt>
      <trkpt lat="50.3239324" lon="7.3028315">
        <ele>195.2849121</ele>
        <time>2010-06-03T16:58:46Z</time>
      </trkpt>
      <trkpt lat="50.3238893" lon="7.3027688">
        <ele>191.9202881</ele>
        <time>2010-06-03T16:59:01Z</time>
      </trkpt>
      <trkpt lat="50.3238401" lon="7.3027935">
        <ele>189.9976807</ele>
        <time>2010-06-03T16:59:07Z</time>
      </trkpt>
      <trkpt lat="50.3236830" lon="7.3029434">
        <ele>187.1137695</ele>
        <time>2010-06-03T16:59:22Z</time>
      </trkpt>
      <trkpt lat="50.3236920" lon="7.3031502">
        <ele>184.7105713</ele>
        <time>2010-06-03T16:59:38Z</time>
      </trkpt>
      <trkpt lat="50.3236682" lon="7.3032974">
        <ele>180.8652344</ele>
        <time>2010-06-03T16:59:49Z</time>
      </trkpt>
      <trkpt lat="50.3236472" lon="7.3034439">
        <ele>180.8652344</ele>
        <time>2010-06-03T17:00:00Z</time>
      </trkpt>
      <trkpt lat="50.3236804" lon="7.3037691">
        <ele>178.9426270</ele>
        <time>2010-06-03T17:00:49Z</time>
      </trkpt>
      <trkpt lat="50.3235853" lon="7.3037915">
        <ele>178.4619141</ele>
        <time>2010-06-03T17:00:52Z</time>
      </trkpt>
      <trkpt lat="50.3234541" lon="7.3039620">
        <ele>179.4232178</ele>
        <time>2010-06-03T17:01:04Z</time>
      </trkpt>
      <trkpt lat="50.3233657" lon="7.3039070">
        <ele>178.9426270</ele>
        <time>2010-06-03T17:01:10Z</time>
      </trkpt>
      <trkpt lat="50.3232290" lon="7.3037207">
        <ele>176.0585938</ele>
        <time>2010-06-03T17:01:24Z</time>
      </trkpt>
      <trkpt lat="50.3232263" lon="7.3036468">
        <ele>176.0585938</ele>
        <time>2010-06-03T17:01:30Z</time>
      </trkpt>
      <trkpt lat="50.3232217" lon="7.3035601">
        <ele>176.5393066</ele>
        <time>2010-06-03T17:01:40Z</time>
      </trkpt>
      <trkpt lat="50.3233211" lon="7.3034955">
        <ele>175.0972900</ele>
        <time>2010-06-03T17:01:45Z</time>
      </trkpt>
      <trkpt lat="50.3234992" lon="7.3033481">
        <ele>176.0585938</ele>
        <time>2010-06-03T17:01:58Z</time>
      </trkpt>
      <trkpt lat="50.3235404" lon="7.3032920">
        <ele>176.5393066</ele>
        <time>2010-06-03T17:02:03Z</time>
      </trkpt>
      <trkpt lat="50.3234925" lon="7.3031433">
        <ele>176.5393066</ele>
        <time>2010-06-03T17:02:08Z</time>
      </trkpt>
      <trkpt lat="50.3235989" lon="7.3029800">
        <ele>176.5393066</ele>
        <time>2010-06-03T17:02:16Z</time>
      </trkpt>
      <trkpt lat="50.3235820" lon="7.3028651">
        <ele>177.0200195</ele>
        <time>2010-06-03T17:02:20Z</time>
      </trkpt>
      <trkpt lat="50.3235656" lon="7.3027758">
        <ele>177.0200195</ele>
        <time>2010-06-03T17:02:24Z</time>
      </trkpt>
      <trkpt lat="50.3236462" lon="7.3025968">
        <ele>177.5006104</ele>
        <time>2010-06-03T17:02:35Z</time>
      </trkpt>
      <trkpt lat="50.3236726" lon="7.3025058">
        <ele>177.5006104</ele>
        <time>2010-06-03T17:02:40Z</time>
      </trkpt>
      <trkpt lat="50.3237204" lon="7.3022676">
        <ele>177.9812012</ele>
        <time>2010-06-03T17:02:49Z</time>
      </trkpt>
      <trkpt lat="50.3237267" lon="7.3022444">
        <ele>177.9812012</ele>
        <time>2010-06-03T17:02:51Z</time>
      </trkpt>
      <trkpt lat="50.3237416" lon="7.3022191">
        <ele>177.9812012</ele>
        <time>2010-06-03T17:02:53Z</time>
      </trkpt>
      <trkpt lat="50.3237702" lon="7.3020949">
        <ele>178.4619141</ele>
        <time>2010-06-03T17:03:02Z</time>
      </trkpt>
      <trkpt lat="50.3237723" lon="7.3020912">
        <ele>178.4619141</ele>
        <time>2010-06-03T17:03:03Z</time>
      </trkpt>
      <trkpt lat="50.3237818" lon="7.3021039">
        <ele>178.4619141</ele>
        <time>2010-06-03T17:03:05Z</time>
      </trkpt>
      <trkpt lat="50.3236744" lon="7.3019561">
        <ele>178.4619141</ele>
        <time>2010-06-03T17:03:17Z</time>
      </trkpt>
      <trkpt lat="50.3236728" lon="7.3019466">
        <ele>177.9812012</ele>
        <time>2010-06-03T17:03:18Z</time>
      </trkpt>
      <trkpt lat="50.3236435" lon="7.3018345">
        <ele>178.9426270</ele>
        <time>2010-06-03T17:03:24Z</time>
      </trkpt>
      <trkpt lat="50.3235645" lon="7.3015592">
        <ele>179.9038086</ele>
        <time>2010-06-03T17:03:35Z</time>
      </trkpt>
      <trkpt lat="50.3235282" lon="7.3013083">
        <ele>180.3845215</ele>
        <time>2010-06-03T17:03:47Z</time>
      </trkpt>
      <trkpt lat="50.3235421" lon="7.3012339">
        <ele>179.9038086</ele>
        <time>2010-06-03T17:03:50Z</time>
      </trkpt>
      <trkpt lat="50.3235464" lon="7.3011966">
        <ele>180.3845215</ele>
        <time>2010-06-03T17:03:52Z</time>
      </trkpt>
      <trkpt lat="50.3235317" lon="7.3009330">
        <ele>180.8652344</ele>
        <time>2010-06-03T17:04:10Z</time>
      </trkpt>
      <trkpt lat="50.3235060" lon="7.3007123">
        <ele>180.8652344</ele>
        <time>2010-06-03T17:04:21Z</time>
      </trkpt>
      <trkpt lat="50.3234476" lon="7.3004753">
        <ele>180.3845215</ele>
        <time>2010-06-03T17:04:35Z</time>
      </trkpt>
      <trkpt lat="50.3234071" lon="7.3003040">
        <ele>180.3845215</ele>
        <time>2010-06-03T17:04:45Z</time>
      </trkpt>
      <trkpt lat="50.3233708" lon="7.3001187">
        <ele>180.3845215</ele>
        <time>2010-06-03T17:04:58Z</time>
      </trkpt>
      <trkpt lat="50.3233262" lon="7.3000568">
        <ele>180.8652344</ele>
        <time>2010-06-03T17:05:00Z</time>
      </trkpt>
      <trkpt lat="50.3232484" lon="7.2998631">
        <ele>180.3845215</ele>
        <time>2010-06-03T17:05:14Z</time>
      </trkpt>
      <trkpt lat="50.3232155" lon="7.2998140">
        <ele>180.8652344</ele>
        <time>2010-06-03T17:05:18Z</time>
      </trkpt>
      <trkpt lat="50.3231849" lon="7.2997613">
        <ele>180.3845215</ele>
        <time>2010-06-03T17:05:25Z</time>
      </trkpt>
    </trkseg>
  </trk>

</gpx>
